<?xml version="1.0" encoding="UTF-8" standalone="no" ?>
<gpx xmlns="http://www.topografix.com/GPX/1/1" xmlns:xsi="http://www.w3.org/2001/XMLSchema-instance" xsi:schemaLocation="http://www.topografix.com/GPX/1/1 http://www.topografix.com/GPX/1/1/gpx.xsd" version="1.1" creator="VisuGPX - https://www.visugpx.com">
  <metadata>
    <name>Randonneur</name>
    <desc><![CDATA[Préparation de la randonnée du 14 juin 2015]]></desc>
  </metadata>
  <trk>
    <name><![CDATA[Marie Jeanne /Mezieres]]></name>
    <desc><![CDATA[18 mai 2015  3:53 pm]]></desc>
    <trkseg>
      <trkpt lat="49.76521" lon="3.37536">
        <ele>63.159</ele>
        <time>2015-05-18T13:53:36.776Z</time>
      </trkpt>
      <trkpt lat="49.76521" lon="3.37536">
        <ele>63.154</ele>
        <time>2015-05-18T13:54:33.316Z</time>
      </trkpt>
      <trkpt lat="49.765" lon="3.37559">
        <ele>63.295</ele>
        <time>2015-05-18T13:54:46.557Z</time>
      </trkpt>
      <trkpt lat="49.76498" lon="3.37565">
        <ele>63.678</ele>
        <time>2015-05-18T13:54:47.699Z</time>
      </trkpt>
      <trkpt lat="49.76492" lon="3.37582">
        <ele>64.077</ele>
        <time>2015-05-18T13:54:50.813Z</time>
      </trkpt>
      <trkpt lat="49.76485" lon="3.37597">
        <ele>64.247</ele>
        <time>2015-05-18T13:54:53.483Z</time>
      </trkpt>
      <trkpt lat="49.76478" lon="3.37611">
        <ele>64.156</ele>
        <time>2015-05-18T13:54:56.094Z</time>
      </trkpt>
      <trkpt lat="49.7647" lon="3.37628">
        <ele>63.892</ele>
        <time>2015-05-18T13:54:58.847Z</time>
      </trkpt>
      <trkpt lat="49.76465" lon="3.37641">
        <ele>63.643</ele>
        <time>2015-05-18T13:55:00.690Z</time>
      </trkpt>
      <trkpt lat="49.76457" lon="3.3766">
        <ele>63.495</ele>
        <time>2015-05-18T13:55:03.406Z</time>
      </trkpt>
      <trkpt lat="49.76449" lon="3.37677">
        <ele>63.372</ele>
        <time>2015-05-18T13:55:05.885Z</time>
      </trkpt>
      <trkpt lat="49.76442" lon="3.3769">
        <ele>63.184</ele>
        <time>2015-05-18T13:55:08.018Z</time>
      </trkpt>
      <trkpt lat="49.76437" lon="3.37713">
        <ele>62.823</ele>
        <time>2015-05-18T13:55:10.824Z</time>
      </trkpt>
      <trkpt lat="49.76432" lon="3.37725">
        <ele>62.199</ele>
        <time>2015-05-18T13:55:12.554Z</time>
      </trkpt>
      <trkpt lat="49.76423" lon="3.37746">
        <ele>61.483</ele>
        <time>2015-05-18T13:55:15.577Z</time>
      </trkpt>
      <trkpt lat="49.76417" lon="3.37759">
        <ele>61.032</ele>
        <time>2015-05-18T13:55:17.457Z</time>
      </trkpt>
      <trkpt lat="49.76412" lon="3.37771">
        <ele>60.958</ele>
        <time>2015-05-18T13:55:19.273Z</time>
      </trkpt>
      <trkpt lat="49.76406" lon="3.37786">
        <ele>60.988</ele>
        <time>2015-05-18T13:55:21.638Z</time>
      </trkpt>
      <trkpt lat="49.76399" lon="3.37802">
        <ele>60.733</ele>
        <time>2015-05-18T13:55:24.362Z</time>
      </trkpt>
      <trkpt lat="49.76393" lon="3.37816">
        <ele>60.157</ele>
        <time>2015-05-18T13:55:26.612Z</time>
      </trkpt>
      <trkpt lat="49.76383" lon="3.37838">
        <ele>59.684</ele>
        <time>2015-05-18T13:55:30.455Z</time>
      </trkpt>
      <trkpt lat="49.76377" lon="3.37855">
        <ele>59.588</ele>
        <time>2015-05-18T13:55:33.473Z</time>
      </trkpt>
      <trkpt lat="49.76371" lon="3.37868">
        <ele>59.703</ele>
        <time>2015-05-18T13:55:36.143Z</time>
      </trkpt>
      <trkpt lat="49.76366" lon="3.37881">
        <ele>59.793</ele>
        <time>2015-05-18T13:55:38.851Z</time>
      </trkpt>
      <trkpt lat="49.7636" lon="3.37893">
        <ele>59.782</ele>
        <time>2015-05-18T13:55:41.532Z</time>
      </trkpt>
      <trkpt lat="49.76355" lon="3.37907">
        <ele>59.72</ele>
        <time>2015-05-18T13:55:44.421Z</time>
      </trkpt>
      <trkpt lat="49.76349" lon="3.37921">
        <ele>59.743</ele>
        <time>2015-05-18T13:55:47.487Z</time>
      </trkpt>
      <trkpt lat="49.76342" lon="3.37938">
        <ele>59.918</ele>
        <time>2015-05-18T13:55:50.770Z</time>
      </trkpt>
      <trkpt lat="49.76335" lon="3.37954">
        <ele>60.123</ele>
        <time>2015-05-18T13:55:53.766Z</time>
      </trkpt>
      <trkpt lat="49.76329" lon="3.3797">
        <ele>60.139</ele>
        <time>2015-05-18T13:55:56.646Z</time>
      </trkpt>
      <trkpt lat="49.76322" lon="3.37986">
        <ele>59.898</ele>
        <time>2015-05-18T13:55:59.620Z</time>
      </trkpt>
      <trkpt lat="49.76315" lon="3.38004">
        <ele>59.497</ele>
        <time>2015-05-18T13:56:02.911Z</time>
      </trkpt>
      <trkpt lat="49.76309" lon="3.38023">
        <ele>59.059</ele>
        <time>2015-05-18T13:56:05.952Z</time>
      </trkpt>
      <trkpt lat="49.76304" lon="3.38037">
        <ele>58.697</ele>
        <time>2015-05-18T13:56:08.055Z</time>
      </trkpt>
      <trkpt lat="49.763" lon="3.3805">
        <ele>58.425</ele>
        <time>2015-05-18T13:56:09.921Z</time>
      </trkpt>
      <trkpt lat="49.76293" lon="3.38069">
        <ele>58.159</ele>
        <time>2015-05-18T13:56:12.774Z</time>
      </trkpt>
      <trkpt lat="49.76287" lon="3.38095">
        <ele>57.89</ele>
        <time>2015-05-18T13:56:16.336Z</time>
      </trkpt>
      <trkpt lat="49.76283" lon="3.38111">
        <ele>57.529</ele>
        <time>2015-05-18T13:56:18.392Z</time>
      </trkpt>
      <trkpt lat="49.7628" lon="3.38126">
        <ele>57.023</ele>
        <time>2015-05-18T13:56:20.455Z</time>
      </trkpt>
      <trkpt lat="49.76275" lon="3.3815">
        <ele>56.86</ele>
        <time>2015-05-18T13:56:23.674Z</time>
      </trkpt>
      <trkpt lat="49.76273" lon="3.38164">
        <ele>57.394</ele>
        <time>2015-05-18T13:56:25.657Z</time>
      </trkpt>
      <trkpt lat="49.7627" lon="3.38184">
        <ele>58.156</ele>
        <time>2015-05-18T13:56:28.553Z</time>
      </trkpt>
      <trkpt lat="49.76267" lon="3.38202">
        <ele>58.56</ele>
        <time>2015-05-18T13:56:31.237Z</time>
      </trkpt>
      <trkpt lat="49.76264" lon="3.38221">
        <ele>58.563</ele>
        <time>2015-05-18T13:56:34.105Z</time>
      </trkpt>
      <trkpt lat="49.76263" lon="3.38237">
        <ele>58.513</ele>
        <time>2015-05-18T13:56:36.544Z</time>
      </trkpt>
      <trkpt lat="49.76263" lon="3.38261">
        <ele>58.672</ele>
        <time>2015-05-18T13:56:39.931Z</time>
      </trkpt>
      <trkpt lat="49.76268" lon="3.38293">
        <ele>58.887</ele>
        <time>2015-05-18T13:56:44.162Z</time>
      </trkpt>
      <trkpt lat="49.76272" lon="3.38307">
        <ele>58.845</ele>
        <time>2015-05-18T13:56:46.041Z</time>
      </trkpt>
      <trkpt lat="49.76275" lon="3.38322">
        <ele>58.523</ele>
        <time>2015-05-18T13:56:47.955Z</time>
      </trkpt>
      <trkpt lat="49.76281" lon="3.38345">
        <ele>58.242</ele>
        <time>2015-05-18T13:56:50.958Z</time>
      </trkpt>
      <trkpt lat="49.76285" lon="3.38359">
        <ele>58.309</ele>
        <time>2015-05-18T13:56:52.763Z</time>
      </trkpt>
      <trkpt lat="49.7629" lon="3.38378">
        <ele>58.752</ele>
        <time>2015-05-18T13:56:55.397Z</time>
      </trkpt>
      <trkpt lat="49.76294" lon="3.38391">
        <ele>59.398</ele>
        <time>2015-05-18T13:56:57.358Z</time>
      </trkpt>
      <trkpt lat="49.76299" lon="3.38405">
        <ele>60.037</ele>
        <time>2015-05-18T13:56:59.944Z</time>
      </trkpt>
      <trkpt lat="49.76304" lon="3.38421">
        <ele>60.531</ele>
        <time>2015-05-18T13:57:03.178Z</time>
      </trkpt>
      <trkpt lat="49.76309" lon="3.38434">
        <ele>60.8</ele>
        <time>2015-05-18T13:57:06.168Z</time>
      </trkpt>
      <trkpt lat="49.76309" lon="3.38449">
        <ele>60.828</ele>
        <time>2015-05-18T13:57:09.058Z</time>
      </trkpt>
      <trkpt lat="49.76305" lon="3.38466">
        <ele>60.713</ele>
        <time>2015-05-18T13:57:12.668Z</time>
      </trkpt>
      <trkpt lat="49.76299" lon="3.38483">
        <ele>60.59</ele>
        <time>2015-05-18T13:57:16.530Z</time>
      </trkpt>
      <trkpt lat="49.76294" lon="3.38495">
        <ele>60.494</ele>
        <time>2015-05-18T13:57:19.563Z</time>
      </trkpt>
      <trkpt lat="49.76289" lon="3.38509">
        <ele>60.328</ele>
        <time>2015-05-18T13:57:23.014Z</time>
      </trkpt>
      <trkpt lat="49.76283" lon="3.38528">
        <ele>60.078</ele>
        <time>2015-05-18T13:57:27.114Z</time>
      </trkpt>
      <trkpt lat="49.76285" lon="3.38552">
        <ele>60.093</ele>
        <time>2015-05-18T13:57:31.278Z</time>
      </trkpt>
      <trkpt lat="49.76294" lon="3.38564">
        <ele>60.577</ele>
        <time>2015-05-18T13:57:33.806Z</time>
      </trkpt>
      <trkpt lat="49.76313" lon="3.38578">
        <ele>61.029</ele>
        <time>2015-05-18T13:57:37.833Z</time>
      </trkpt>
      <trkpt lat="49.76322" lon="3.38591">
        <ele>60.968</ele>
        <time>2015-05-18T13:57:39.686Z</time>
      </trkpt>
      <trkpt lat="49.76343" lon="3.38611">
        <ele>60.605</ele>
        <time>2015-05-18T13:57:43.067Z</time>
      </trkpt>
      <trkpt lat="49.76363" lon="3.38634">
        <ele>60.278</ele>
        <time>2015-05-18T13:57:46.183Z</time>
      </trkpt>
      <trkpt lat="49.7638" lon="3.38662">
        <ele>60.074</ele>
        <time>2015-05-18T13:57:49.260Z</time>
      </trkpt>
      <trkpt lat="49.76393" lon="3.38686">
        <ele>60.006</ele>
        <time>2015-05-18T13:57:52.344Z</time>
      </trkpt>
      <trkpt lat="49.764" lon="3.38699">
        <ele>60.113</ele>
        <time>2015-05-18T13:57:54.368Z</time>
      </trkpt>
      <trkpt lat="49.76407" lon="3.38712">
        <ele>60.346</ele>
        <time>2015-05-18T13:57:56.585Z</time>
      </trkpt>
      <trkpt lat="49.76414" lon="3.38724">
        <ele>60.488</ele>
        <time>2015-05-18T13:57:58.775Z</time>
      </trkpt>
      <trkpt lat="49.76424" lon="3.38741">
        <ele>60.371</ele>
        <time>2015-05-18T13:58:01.650Z</time>
      </trkpt>
      <trkpt lat="49.7643" lon="3.38752">
        <ele>60.058</ele>
        <time>2015-05-18T13:58:03.543Z</time>
      </trkpt>
      <trkpt lat="49.76439" lon="3.38769">
        <ele>59.731</ele>
        <time>2015-05-18T13:58:06.384Z</time>
      </trkpt>
      <trkpt lat="49.76446" lon="3.38781">
        <ele>59.468</ele>
        <time>2015-05-18T13:58:08.526Z</time>
      </trkpt>
      <trkpt lat="49.76453" lon="3.38794">
        <ele>59.259</ele>
        <time>2015-05-18T13:58:11.050Z</time>
      </trkpt>
      <trkpt lat="49.76461" lon="3.38808">
        <ele>59.187</ele>
        <time>2015-05-18T13:58:13.757Z</time>
      </trkpt>
      <trkpt lat="49.76468" lon="3.3882">
        <ele>59.31</ele>
        <time>2015-05-18T13:58:16.050Z</time>
      </trkpt>
      <trkpt lat="49.76476" lon="3.38835">
        <ele>59.474</ele>
        <time>2015-05-18T13:58:18.876Z</time>
      </trkpt>
      <trkpt lat="49.76484" lon="3.38849">
        <ele>59.539</ele>
        <time>2015-05-18T13:58:21.648Z</time>
      </trkpt>
      <trkpt lat="49.76492" lon="3.38864">
        <ele>59.62</ele>
        <time>2015-05-18T13:58:24.382Z</time>
      </trkpt>
      <trkpt lat="49.765" lon="3.38878">
        <ele>59.972</ele>
        <time>2015-05-18T13:58:27.180Z</time>
      </trkpt>
      <trkpt lat="49.76508" lon="3.38893">
        <ele>60.601</ele>
        <time>2015-05-18T13:58:30.207Z</time>
      </trkpt>
      <trkpt lat="49.76515" lon="3.38905">
        <ele>61.156</ele>
        <time>2015-05-18T13:58:32.703Z</time>
      </trkpt>
      <trkpt lat="49.76523" lon="3.38919">
        <ele>61.39</ele>
        <time>2015-05-18T13:58:35.863Z</time>
      </trkpt>
      <trkpt lat="49.76531" lon="3.38934">
        <ele>61.321</ele>
        <time>2015-05-18T13:58:39.067Z</time>
      </trkpt>
      <trkpt lat="49.76538" lon="3.38947">
        <ele>60.974</ele>
        <time>2015-05-18T13:58:41.968Z</time>
      </trkpt>
      <trkpt lat="49.76545" lon="3.3896">
        <ele>60.463</ele>
        <time>2015-05-18T13:58:45.100Z</time>
      </trkpt>
      <trkpt lat="49.76552" lon="3.38972">
        <ele>60.088</ele>
        <time>2015-05-18T13:58:48.811Z</time>
      </trkpt>
      <trkpt lat="49.76559" lon="3.38985">
        <ele>59.991</ele>
        <time>2015-05-18T13:58:52.902Z</time>
      </trkpt>
      <trkpt lat="49.76566" lon="3.38998">
        <ele>59.97</ele>
        <time>2015-05-18T13:58:57.066Z</time>
      </trkpt>
      <trkpt lat="49.76572" lon="3.39009">
        <ele>59.735</ele>
        <time>2015-05-18T13:58:59.948Z</time>
      </trkpt>
      <trkpt lat="49.76581" lon="3.39026">
        <ele>59.287</ele>
        <time>2015-05-18T13:59:03.397Z</time>
      </trkpt>
      <trkpt lat="49.76587" lon="3.39039">
        <ele>58.882</ele>
        <time>2015-05-18T13:59:05.752Z</time>
      </trkpt>
      <trkpt lat="49.766" lon="3.39052">
        <ele>58.633</ele>
        <time>2015-05-18T13:59:09.332Z</time>
      </trkpt>
      <trkpt lat="49.76608" lon="3.3907">
        <ele>58.466</ele>
        <time>2015-05-18T13:59:12.448Z</time>
      </trkpt>
      <trkpt lat="49.76617" lon="3.39086">
        <ele>58.336</ele>
        <time>2015-05-18T13:59:15.592Z</time>
      </trkpt>
      <trkpt lat="49.76623" lon="3.39097">
        <ele>58.258</ele>
        <time>2015-05-18T13:59:17.673Z</time>
      </trkpt>
      <trkpt lat="49.76631" lon="3.39112">
        <ele>58.31</ele>
        <time>2015-05-18T13:59:20.686Z</time>
      </trkpt>
      <trkpt lat="49.76637" lon="3.39128">
        <ele>58.535</ele>
        <time>2015-05-18T13:59:23.592Z</time>
      </trkpt>
      <trkpt lat="49.76641" lon="3.39141">
        <ele>58.823</ele>
        <time>2015-05-18T13:59:25.732Z</time>
      </trkpt>
      <trkpt lat="49.76646" lon="3.3916">
        <ele>59.019</ele>
        <time>2015-05-18T13:59:28.758Z</time>
      </trkpt>
      <trkpt lat="49.76654" lon="3.39177">
        <ele>59.091</ele>
        <time>2015-05-18T13:59:31.846Z</time>
      </trkpt>
      <trkpt lat="49.76664" lon="3.39192">
        <ele>59.209</ele>
        <time>2015-05-18T13:59:35.071Z</time>
      </trkpt>
      <trkpt lat="49.7667" lon="3.39209">
        <ele>59.677</ele>
        <time>2015-05-18T13:59:38.017Z</time>
      </trkpt>
      <trkpt lat="49.76677" lon="3.39225">
        <ele>60.528</ele>
        <time>2015-05-18T13:59:40.921Z</time>
      </trkpt>
      <trkpt lat="49.76683" lon="3.39242">
        <ele>61.4</ele>
        <time>2015-05-18T13:59:43.878Z</time>
      </trkpt>
      <trkpt lat="49.76687" lon="3.39261">
        <ele>61.953</ele>
        <time>2015-05-18T13:59:46.931Z</time>
      </trkpt>
      <trkpt lat="49.76692" lon="3.39277">
        <ele>62.151</ele>
        <time>2015-05-18T13:59:49.761Z</time>
      </trkpt>
      <trkpt lat="49.76699" lon="3.39293">
        <ele>62.158</ele>
        <time>2015-05-18T13:59:52.834Z</time>
      </trkpt>
      <trkpt lat="49.76706" lon="3.39308">
        <ele>62.249</ele>
        <time>2015-05-18T13:59:55.845Z</time>
      </trkpt>
      <trkpt lat="49.76711" lon="3.39324">
        <ele>62.551</ele>
        <time>2015-05-18T13:59:58.694Z</time>
      </trkpt>
      <trkpt lat="49.76713" lon="3.39339">
        <ele>62.92</ele>
        <time>2015-05-18T14:00:01.324Z</time>
      </trkpt>
      <trkpt lat="49.76716" lon="3.39353">
        <ele>63.185</ele>
        <time>2015-05-18T14:00:04.095Z</time>
      </trkpt>
      <trkpt lat="49.76722" lon="3.39369">
        <ele>63.313</ele>
        <time>2015-05-18T14:00:07.363Z</time>
      </trkpt>
      <trkpt lat="49.7673" lon="3.39387">
        <ele>63.331</ele>
        <time>2015-05-18T14:00:10.957Z</time>
      </trkpt>
      <trkpt lat="49.76736" lon="3.39398">
        <ele>63.234</ele>
        <time>2015-05-18T14:00:13.160Z</time>
      </trkpt>
      <trkpt lat="49.76744" lon="3.39416">
        <ele>63.023</ele>
        <time>2015-05-18T14:00:16.469Z</time>
      </trkpt>
      <trkpt lat="49.76742" lon="3.39434">
        <ele>62.796</ele>
        <time>2015-05-18T14:00:19.389Z</time>
      </trkpt>
      <trkpt lat="49.76734" lon="3.39445">
        <ele>62.601</ele>
        <time>2015-05-18T14:00:22.097Z</time>
      </trkpt>
      <trkpt lat="49.76723" lon="3.39454">
        <ele>62.367</ele>
        <time>2015-05-18T14:00:24.958Z</time>
      </trkpt>
      <trkpt lat="49.76712" lon="3.39461">
        <ele>62.053</ele>
        <time>2015-05-18T14:00:27.747Z</time>
      </trkpt>
      <trkpt lat="49.76701" lon="3.39468">
        <ele>61.689</ele>
        <time>2015-05-18T14:00:30.567Z</time>
      </trkpt>
      <trkpt lat="49.7669" lon="3.39477">
        <ele>61.237</ele>
        <time>2015-05-18T14:00:33.323Z</time>
      </trkpt>
      <trkpt lat="49.7668" lon="3.39485">
        <ele>60.617</ele>
        <time>2015-05-18T14:00:35.955Z</time>
      </trkpt>
      <trkpt lat="49.76671" lon="3.39495">
        <ele>59.972</ele>
        <time>2015-05-18T14:00:38.702Z</time>
      </trkpt>
      <trkpt lat="49.76661" lon="3.39507">
        <ele>59.583</ele>
        <time>2015-05-18T14:00:41.596Z</time>
      </trkpt>
      <trkpt lat="49.76653" lon="3.39519">
        <ele>59.526</ele>
        <time>2015-05-18T14:00:44.290Z</time>
      </trkpt>
      <trkpt lat="49.76653" lon="3.39519">
        <ele>59.626</ele>
        <time>2015-05-18T14:00:46.357Z</time>
      </trkpt>
      <trkpt lat="49.76653" lon="3.39519">
        <ele>59.686</ele>
        <time>2015-05-18T14:00:46.457Z</time>
      </trkpt>
      <trkpt lat="49.7664" lon="3.39549">
        <ele>59.653</ele>
        <time>2015-05-18T14:00:54.473Z</time>
      </trkpt>
      <trkpt lat="49.76636" lon="3.39567">
        <ele>59.712</ele>
        <time>2015-05-18T14:00:57.767Z</time>
      </trkpt>
      <trkpt lat="49.7664" lon="3.39582">
        <ele>60.023</ele>
        <time>2015-05-18T14:01:00.728Z</time>
      </trkpt>
      <trkpt lat="49.76639" lon="3.39597">
        <ele>60.54</ele>
        <time>2015-05-18T14:01:03.517Z</time>
      </trkpt>
      <trkpt lat="49.76638" lon="3.39614">
        <ele>61.183</ele>
        <time>2015-05-18T14:01:06.406Z</time>
      </trkpt>
      <trkpt lat="49.76637" lon="3.3963">
        <ele>61.837</ele>
        <time>2015-05-18T14:01:09.243Z</time>
      </trkpt>
      <trkpt lat="49.76639" lon="3.39646">
        <ele>62.305</ele>
        <time>2015-05-18T14:01:12.088Z</time>
      </trkpt>
      <trkpt lat="49.76639" lon="3.39663">
        <ele>62.609</ele>
        <time>2015-05-18T14:01:14.967Z</time>
      </trkpt>
      <trkpt lat="49.76638" lon="3.3968">
        <ele>62.872</ele>
        <time>2015-05-18T14:01:17.875Z</time>
      </trkpt>
      <trkpt lat="49.76637" lon="3.39698">
        <ele>63.035</ele>
        <time>2015-05-18T14:01:20.865Z</time>
      </trkpt>
      <trkpt lat="49.76636" lon="3.39716">
        <ele>62.989</ele>
        <time>2015-05-18T14:01:23.831Z</time>
      </trkpt>
      <trkpt lat="49.76634" lon="3.39734">
        <ele>62.805</ele>
        <time>2015-05-18T14:01:26.709Z</time>
      </trkpt>
      <trkpt lat="49.76632" lon="3.39752">
        <ele>62.672</ele>
        <time>2015-05-18T14:01:29.634Z</time>
      </trkpt>
      <trkpt lat="49.7663" lon="3.3977">
        <ele>62.696</ele>
        <time>2015-05-18T14:01:32.520Z</time>
      </trkpt>
      <trkpt lat="49.76627" lon="3.39787">
        <ele>62.83</ele>
        <time>2015-05-18T14:01:35.353Z</time>
      </trkpt>
      <trkpt lat="49.76624" lon="3.39805">
        <ele>62.978</ele>
        <time>2015-05-18T14:01:38.281Z</time>
      </trkpt>
      <trkpt lat="49.76619" lon="3.39823">
        <ele>63.039</ele>
        <time>2015-05-18T14:01:41.284Z</time>
      </trkpt>
      <trkpt lat="49.76615" lon="3.39841">
        <ele>62.961</ele>
        <time>2015-05-18T14:01:44.223Z</time>
      </trkpt>
      <trkpt lat="49.76611" lon="3.39858">
        <ele>62.818</ele>
        <time>2015-05-18T14:01:47.079Z</time>
      </trkpt>
      <trkpt lat="49.76606" lon="3.39875">
        <ele>62.711</ele>
        <time>2015-05-18T14:01:49.970Z</time>
      </trkpt>
      <trkpt lat="49.766" lon="3.39891">
        <ele>62.715</ele>
        <time>2015-05-18T14:01:52.928Z</time>
      </trkpt>
      <trkpt lat="49.76592" lon="3.39906">
        <ele>62.852</ele>
        <time>2015-05-18T14:01:55.824Z</time>
      </trkpt>
      <trkpt lat="49.76584" lon="3.39919">
        <ele>63.053</ele>
        <time>2015-05-18T14:01:58.729Z</time>
      </trkpt>
      <trkpt lat="49.76576" lon="3.39932">
        <ele>63.273</ele>
        <time>2015-05-18T14:02:01.535Z</time>
      </trkpt>
      <trkpt lat="49.76568" lon="3.39945">
        <ele>63.519</ele>
        <time>2015-05-18T14:02:04.332Z</time>
      </trkpt>
      <trkpt lat="49.7656" lon="3.39957">
        <ele>63.747</ele>
        <time>2015-05-18T14:02:06.998Z</time>
      </trkpt>
      <trkpt lat="49.76554" lon="3.39969">
        <ele>63.937</ele>
        <time>2015-05-18T14:02:09.713Z</time>
      </trkpt>
      <trkpt lat="49.76562" lon="3.39983">
        <ele>64.133</ele>
        <time>2015-05-18T14:02:13.902Z</time>
      </trkpt>
      <trkpt lat="49.76571" lon="3.39993">
        <ele>64.588</ele>
        <time>2015-05-18T14:02:17.629Z</time>
      </trkpt>
      <trkpt lat="49.76578" lon="3.40002">
        <ele>65.454</ele>
        <time>2015-05-18T14:02:21.317Z</time>
      </trkpt>
      <trkpt lat="49.76603" lon="3.40021">
        <ele>66.385</ele>
        <time>2015-05-18T14:02:32.335Z</time>
      </trkpt>
      <trkpt lat="49.76612" lon="3.40026">
        <ele>66.986</ele>
        <time>2015-05-18T14:02:34.916Z</time>
      </trkpt>
      <trkpt lat="49.76621" lon="3.40032">
        <ele>67.252</ele>
        <time>2015-05-18T14:02:37.489Z</time>
      </trkpt>
      <trkpt lat="49.7663" lon="3.4004">
        <ele>67.316</ele>
        <time>2015-05-18T14:02:40.198Z</time>
      </trkpt>
      <trkpt lat="49.76639" lon="3.40048">
        <ele>67.307</ele>
        <time>2015-05-18T14:02:43.037Z</time>
      </trkpt>
      <trkpt lat="49.76649" lon="3.4006">
        <ele>67.243</ele>
        <time>2015-05-18T14:02:46.145Z</time>
      </trkpt>
      <trkpt lat="49.76659" lon="3.40073">
        <ele>67.104</ele>
        <time>2015-05-18T14:02:49.375Z</time>
      </trkpt>
      <trkpt lat="49.76665" lon="3.40084">
        <ele>66.949</ele>
        <time>2015-05-18T14:02:51.514Z</time>
      </trkpt>
      <trkpt lat="49.76672" lon="3.40101">
        <ele>66.838</ele>
        <time>2015-05-18T14:02:54.545Z</time>
      </trkpt>
      <trkpt lat="49.76678" lon="3.40115">
        <ele>66.828</ele>
        <time>2015-05-18T14:02:57.219Z</time>
      </trkpt>
      <trkpt lat="49.76684" lon="3.40128">
        <ele>67.065</ele>
        <time>2015-05-18T14:02:59.748Z</time>
      </trkpt>
      <trkpt lat="49.76691" lon="3.40142">
        <ele>67.527</ele>
        <time>2015-05-18T14:03:02.678Z</time>
      </trkpt>
      <trkpt lat="49.76698" lon="3.40154">
        <ele>67.795</ele>
        <time>2015-05-18T14:03:05.099Z</time>
      </trkpt>
      <trkpt lat="49.76704" lon="3.40167">
        <ele>67.418</ele>
        <time>2015-05-18T14:03:07.499Z</time>
      </trkpt>
      <trkpt lat="49.7671" lon="3.40181">
        <ele>66.415</ele>
        <time>2015-05-18T14:03:09.790Z</time>
      </trkpt>
      <trkpt lat="49.7672" lon="3.40199">
        <ele>64.502</ele>
        <time>2015-05-18T14:03:12.927Z</time>
      </trkpt>
      <trkpt lat="49.76725" lon="3.40212">
        <ele>64</ele>
        <time>2015-05-18T14:03:14.953Z</time>
      </trkpt>
      <trkpt lat="49.76731" lon="3.40232">
        <ele>63.584</ele>
        <time>2015-05-18T14:03:17.875Z</time>
      </trkpt>
      <trkpt lat="49.76737" lon="3.4025">
        <ele>63.233</ele>
        <time>2015-05-18T14:03:20.724Z</time>
      </trkpt>
      <trkpt lat="49.76743" lon="3.40267">
        <ele>63.073</ele>
        <time>2015-05-18T14:03:23.447Z</time>
      </trkpt>
      <trkpt lat="49.7675" lon="3.4028">
        <ele>63.275</ele>
        <time>2015-05-18T14:03:26.188Z</time>
      </trkpt>
      <trkpt lat="49.76757" lon="3.40294">
        <ele>63.504</ele>
        <time>2015-05-18T14:03:28.983Z</time>
      </trkpt>
      <trkpt lat="49.76762" lon="3.4031">
        <ele>63.627</ele>
        <time>2015-05-18T14:03:31.745Z</time>
      </trkpt>
      <trkpt lat="49.76766" lon="3.40328">
        <ele>63.628</ele>
        <time>2015-05-18T14:03:34.854Z</time>
      </trkpt>
      <trkpt lat="49.76767" lon="3.40345">
        <ele>63.735</ele>
        <time>2015-05-18T14:03:37.778Z</time>
      </trkpt>
      <trkpt lat="49.76767" lon="3.4036">
        <ele>64.13</ele>
        <time>2015-05-18T14:03:40.392Z</time>
      </trkpt>
      <trkpt lat="49.76771" lon="3.40375">
        <ele>64.684</ele>
        <time>2015-05-18T14:03:43.238Z</time>
      </trkpt>
      <trkpt lat="49.76773" lon="3.40392">
        <ele>65.201</ele>
        <time>2015-05-18T14:03:46.306Z</time>
      </trkpt>
      <trkpt lat="49.76774" lon="3.4041">
        <ele>65.543</ele>
        <time>2015-05-18T14:03:49.423Z</time>
      </trkpt>
      <trkpt lat="49.76777" lon="3.40429">
        <ele>65.657</ele>
        <time>2015-05-18T14:03:52.651Z</time>
      </trkpt>
      <trkpt lat="49.76782" lon="3.40451">
        <ele>65.705</ele>
        <time>2015-05-18T14:03:56.174Z</time>
      </trkpt>
      <trkpt lat="49.76785" lon="3.40465">
        <ele>65.832</ele>
        <time>2015-05-18T14:03:58.350Z</time>
      </trkpt>
      <trkpt lat="49.7679" lon="3.40485">
        <ele>66.054</ele>
        <time>2015-05-18T14:04:01.310Z</time>
      </trkpt>
      <trkpt lat="49.76798" lon="3.40505">
        <ele>66.319</ele>
        <time>2015-05-18T14:04:04.525Z</time>
      </trkpt>
      <trkpt lat="49.76803" lon="3.40519">
        <ele>66.692</ele>
        <time>2015-05-18T14:04:06.575Z</time>
      </trkpt>
      <trkpt lat="49.76807" lon="3.40532">
        <ele>67.218</ele>
        <time>2015-05-18T14:04:08.569Z</time>
      </trkpt>
      <trkpt lat="49.76811" lon="3.40546">
        <ele>67.676</ele>
        <time>2015-05-18T14:04:10.600Z</time>
      </trkpt>
      <trkpt lat="49.76817" lon="3.40566">
        <ele>67.869</ele>
        <time>2015-05-18T14:04:13.641Z</time>
      </trkpt>
      <trkpt lat="49.7682" lon="3.4058">
        <ele>67.928</ele>
        <time>2015-05-18T14:04:15.546Z</time>
      </trkpt>
      <trkpt lat="49.76822" lon="3.406">
        <ele>68.003</ele>
        <time>2015-05-18T14:04:18.377Z</time>
      </trkpt>
      <trkpt lat="49.76824" lon="3.4062">
        <ele>68.088</ele>
        <time>2015-05-18T14:04:21.153Z</time>
      </trkpt>
      <trkpt lat="49.76824" lon="3.4064">
        <ele>68.112</ele>
        <time>2015-05-18T14:04:23.993Z</time>
      </trkpt>
      <trkpt lat="49.76823" lon="3.40661">
        <ele>68.034</ele>
        <time>2015-05-18T14:04:26.905Z</time>
      </trkpt>
      <trkpt lat="49.76822" lon="3.40681">
        <ele>67.788</ele>
        <time>2015-05-18T14:04:29.881Z</time>
      </trkpt>
      <trkpt lat="49.76821" lon="3.40698">
        <ele>67.615</ele>
        <time>2015-05-18T14:04:32.428Z</time>
      </trkpt>
      <trkpt lat="49.76822" lon="3.40712">
        <ele>67.334</ele>
        <time>2015-05-18T14:04:34.682Z</time>
      </trkpt>
      <trkpt lat="49.76823" lon="3.40729">
        <ele>66.852</ele>
        <time>2015-05-18T14:04:37.468Z</time>
      </trkpt>
      <trkpt lat="49.76819" lon="3.40745">
        <ele>65.751</ele>
        <time>2015-05-18T14:04:40.489Z</time>
      </trkpt>
      <trkpt lat="49.76816" lon="3.40764">
        <ele>65.617</ele>
        <time>2015-05-18T14:04:43.787Z</time>
      </trkpt>
      <trkpt lat="49.76815" lon="3.40783">
        <ele>65.742</ele>
        <time>2015-05-18T14:04:47.082Z</time>
      </trkpt>
      <trkpt lat="49.76815" lon="3.40803">
        <ele>65.895</ele>
        <time>2015-05-18T14:04:50.304Z</time>
      </trkpt>
      <trkpt lat="49.76816" lon="3.40822">
        <ele>66.039</ele>
        <time>2015-05-18T14:04:53.313Z</time>
      </trkpt>
      <trkpt lat="49.76817" lon="3.40841">
        <ele>66.266</ele>
        <time>2015-05-18T14:04:56.288Z</time>
      </trkpt>
      <trkpt lat="49.76816" lon="3.40861">
        <ele>66.572</ele>
        <time>2015-05-18T14:04:59.485Z</time>
      </trkpt>
      <trkpt lat="49.76815" lon="3.40882">
        <ele>66.897</ele>
        <time>2015-05-18T14:05:02.725Z</time>
      </trkpt>
      <trkpt lat="49.76814" lon="3.40903">
        <ele>67.102</ele>
        <time>2015-05-18T14:05:05.855Z</time>
      </trkpt>
      <trkpt lat="49.76813" lon="3.40922">
        <ele>67.214</ele>
        <time>2015-05-18T14:05:08.769Z</time>
      </trkpt>
      <trkpt lat="49.76811" lon="3.40939">
        <ele>67.394</ele>
        <time>2015-05-18T14:05:11.527Z</time>
      </trkpt>
      <trkpt lat="49.7681" lon="3.40957">
        <ele>67.654</ele>
        <time>2015-05-18T14:05:14.362Z</time>
      </trkpt>
      <trkpt lat="49.7681" lon="3.40974">
        <ele>67.876</ele>
        <time>2015-05-18T14:05:17.173Z</time>
      </trkpt>
      <trkpt lat="49.76814" lon="3.40991">
        <ele>67.975</ele>
        <time>2015-05-18T14:05:20.298Z</time>
      </trkpt>
      <trkpt lat="49.76813" lon="3.41006">
        <ele>67.855</ele>
        <time>2015-05-18T14:05:23.162Z</time>
      </trkpt>
      <trkpt lat="49.76816" lon="3.41022">
        <ele>67.476</ele>
        <time>2015-05-18T14:05:26.469Z</time>
      </trkpt>
      <trkpt lat="49.7682" lon="3.41041">
        <ele>67.034</ele>
        <time>2015-05-18T14:05:30.159Z</time>
      </trkpt>
      <trkpt lat="49.76822" lon="3.41056">
        <ele>66.693</ele>
        <time>2015-05-18T14:05:32.685Z</time>
      </trkpt>
      <trkpt lat="49.76822" lon="3.41082">
        <ele>66.441</ele>
        <time>2015-05-18T14:05:36.262Z</time>
      </trkpt>
      <trkpt lat="49.76816" lon="3.41104">
        <ele>66.371</ele>
        <time>2015-05-18T14:05:39.503Z</time>
      </trkpt>
      <trkpt lat="49.76817" lon="3.41122">
        <ele>66.581</ele>
        <time>2015-05-18T14:05:41.972Z</time>
      </trkpt>
      <trkpt lat="49.76817" lon="3.41141">
        <ele>66.905</ele>
        <time>2015-05-18T14:05:44.819Z</time>
      </trkpt>
      <trkpt lat="49.76816" lon="3.41157">
        <ele>67.197</ele>
        <time>2015-05-18T14:05:47.332Z</time>
      </trkpt>
      <trkpt lat="49.76815" lon="3.41175">
        <ele>67.508</ele>
        <time>2015-05-18T14:05:50.189Z</time>
      </trkpt>
      <trkpt lat="49.76814" lon="3.41195">
        <ele>67.819</ele>
        <time>2015-05-18T14:05:53.273Z</time>
      </trkpt>
      <trkpt lat="49.76819" lon="3.41214">
        <ele>68.178</ele>
        <time>2015-05-18T14:05:56.499Z</time>
      </trkpt>
      <trkpt lat="49.76824" lon="3.41232">
        <ele>69.18</ele>
        <time>2015-05-18T14:05:59.549Z</time>
      </trkpt>
      <trkpt lat="49.76829" lon="3.41248">
        <ele>70.979</ele>
        <time>2015-05-18T14:06:02.425Z</time>
      </trkpt>
      <trkpt lat="49.76834" lon="3.41263">
        <ele>72.586</ele>
        <time>2015-05-18T14:06:05.214Z</time>
      </trkpt>
      <trkpt lat="49.76841" lon="3.41279">
        <ele>73.37</ele>
        <time>2015-05-18T14:06:08.227Z</time>
      </trkpt>
      <trkpt lat="49.76847" lon="3.41295">
        <ele>73.566</ele>
        <time>2015-05-18T14:06:11.261Z</time>
      </trkpt>
      <trkpt lat="49.76853" lon="3.41312">
        <ele>73.322</ele>
        <time>2015-05-18T14:06:14.140Z</time>
      </trkpt>
      <trkpt lat="49.76857" lon="3.41328">
        <ele>72.649</ele>
        <time>2015-05-18T14:06:16.952Z</time>
      </trkpt>
      <trkpt lat="49.76862" lon="3.41344">
        <ele>71.694</ele>
        <time>2015-05-18T14:06:19.751Z</time>
      </trkpt>
      <trkpt lat="49.76869" lon="3.41358">
        <ele>70.488</ele>
        <time>2015-05-18T14:06:22.698Z</time>
      </trkpt>
      <trkpt lat="49.76876" lon="3.41373">
        <ele>69.17</ele>
        <time>2015-05-18T14:06:25.635Z</time>
      </trkpt>
      <trkpt lat="49.76882" lon="3.41387">
        <ele>68.199</ele>
        <time>2015-05-18T14:06:28.440Z</time>
      </trkpt>
      <trkpt lat="49.76887" lon="3.414">
        <ele>67.858</ele>
        <time>2015-05-18T14:06:31.189Z</time>
      </trkpt>
      <trkpt lat="49.76895" lon="3.41414">
        <ele>67.903</ele>
        <time>2015-05-18T14:06:34.546Z</time>
      </trkpt>
      <trkpt lat="49.76902" lon="3.4143">
        <ele>68.098</ele>
        <time>2015-05-18T14:06:37.815Z</time>
      </trkpt>
      <trkpt lat="49.76906" lon="3.41442">
        <ele>68.369</ele>
        <time>2015-05-18T14:06:40.091Z</time>
      </trkpt>
      <trkpt lat="49.76918" lon="3.41459">
        <ele>68.646</ele>
        <time>2015-05-18T14:06:43.629Z</time>
      </trkpt>
      <trkpt lat="49.7693" lon="3.41476">
        <ele>68.794</ele>
        <time>2015-05-18T14:06:46.923Z</time>
      </trkpt>
      <trkpt lat="49.76941" lon="3.41494">
        <ele>68.73</ele>
        <time>2015-05-18T14:06:49.936Z</time>
      </trkpt>
      <trkpt lat="49.76952" lon="3.41516">
        <ele>68.364</ele>
        <time>2015-05-18T14:06:53.272Z</time>
      </trkpt>
      <trkpt lat="49.7696" lon="3.41526">
        <ele>68.152</ele>
        <time>2015-05-18T14:06:55.137Z</time>
      </trkpt>
      <trkpt lat="49.7697" lon="3.4154">
        <ele>68.136</ele>
        <time>2015-05-18T14:06:57.660Z</time>
      </trkpt>
      <trkpt lat="49.76979" lon="3.41556">
        <ele>68.309</ele>
        <time>2015-05-18T14:07:00.315Z</time>
      </trkpt>
      <trkpt lat="49.76997" lon="3.41567">
        <ele>68.472</ele>
        <time>2015-05-18T14:07:03.802Z</time>
      </trkpt>
      <trkpt lat="49.77009" lon="3.41583">
        <ele>68.534</ele>
        <time>2015-05-18T14:07:06.871Z</time>
      </trkpt>
      <trkpt lat="49.77016" lon="3.41593">
        <ele>68.403</ele>
        <time>2015-05-18T14:07:08.656Z</time>
      </trkpt>
      <trkpt lat="49.77026" lon="3.41606">
        <ele>68.221</ele>
        <time>2015-05-18T14:07:11.311Z</time>
      </trkpt>
      <trkpt lat="49.77036" lon="3.41618">
        <ele>68.073</ele>
        <time>2015-05-18T14:07:13.913Z</time>
      </trkpt>
      <trkpt lat="49.77045" lon="3.41631">
        <ele>67.993</ele>
        <time>2015-05-18T14:07:16.749Z</time>
      </trkpt>
      <trkpt lat="49.77055" lon="3.41643">
        <ele>67.936</ele>
        <time>2015-05-18T14:07:19.555Z</time>
      </trkpt>
      <trkpt lat="49.77064" lon="3.41657">
        <ele>68.022</ele>
        <time>2015-05-18T14:07:22.526Z</time>
      </trkpt>
      <trkpt lat="49.77071" lon="3.41667">
        <ele>68.334</ele>
        <time>2015-05-18T14:07:24.711Z</time>
      </trkpt>
      <trkpt lat="49.77077" lon="3.41679">
        <ele>68.642</ele>
        <time>2015-05-18T14:07:26.842Z</time>
      </trkpt>
      <trkpt lat="49.77084" lon="3.41695">
        <ele>68.736</ele>
        <time>2015-05-18T14:07:29.819Z</time>
      </trkpt>
      <trkpt lat="49.77091" lon="3.4171">
        <ele>68.64</ele>
        <time>2015-05-18T14:07:32.435Z</time>
      </trkpt>
      <trkpt lat="49.77097" lon="3.41725">
        <ele>68.447</ele>
        <time>2015-05-18T14:07:35.240Z</time>
      </trkpt>
      <trkpt lat="49.77103" lon="3.4174">
        <ele>68.247</ele>
        <time>2015-05-18T14:07:37.891Z</time>
      </trkpt>
      <trkpt lat="49.7711" lon="3.41757">
        <ele>68.039</ele>
        <time>2015-05-18T14:07:40.981Z</time>
      </trkpt>
      <trkpt lat="49.77116" lon="3.41777">
        <ele>67.818</ele>
        <time>2015-05-18T14:07:44.318Z</time>
      </trkpt>
      <trkpt lat="49.77118" lon="3.41818">
        <ele>67.671</ele>
        <time>2015-05-18T14:07:50.589Z</time>
      </trkpt>
      <trkpt lat="49.77123" lon="3.41832">
        <ele>67.67</ele>
        <time>2015-05-18T14:07:53.181Z</time>
      </trkpt>
      <trkpt lat="49.7713" lon="3.41843">
        <ele>67.792</ele>
        <time>2015-05-18T14:07:55.872Z</time>
      </trkpt>
      <trkpt lat="49.77138" lon="3.41856">
        <ele>67.984</ele>
        <time>2015-05-18T14:07:59.093Z</time>
      </trkpt>
      <trkpt lat="49.77145" lon="3.41869">
        <ele>68.141</ele>
        <time>2015-05-18T14:08:02.144Z</time>
      </trkpt>
      <trkpt lat="49.77153" lon="3.41882">
        <ele>68.091</ele>
        <time>2015-05-18T14:08:05.166Z</time>
      </trkpt>
      <trkpt lat="49.77161" lon="3.41895">
        <ele>67.807</ele>
        <time>2015-05-18T14:08:08.170Z</time>
      </trkpt>
      <trkpt lat="49.77169" lon="3.41909">
        <ele>67.405</ele>
        <time>2015-05-18T14:08:11.127Z</time>
      </trkpt>
      <trkpt lat="49.77177" lon="3.41923">
        <ele>66.955</ele>
        <time>2015-05-18T14:08:14.116Z</time>
      </trkpt>
      <trkpt lat="49.77186" lon="3.41937">
        <ele>66.54</ele>
        <time>2015-05-18T14:08:17.206Z</time>
      </trkpt>
      <trkpt lat="49.77197" lon="3.41948">
        <ele>66.229</ele>
        <time>2015-05-18T14:08:20.883Z</time>
      </trkpt>
      <trkpt lat="49.77205" lon="3.41935">
        <ele>65.984</ele>
        <time>2015-05-18T14:08:24.362Z</time>
      </trkpt>
      <trkpt lat="49.77205" lon="3.41935">
        <ele>65.823</ele>
        <time>2015-05-18T14:08:24.362Z</time>
      </trkpt>
      <trkpt lat="49.77205" lon="3.41935">
        <ele>65.772</ele>
        <time>2015-05-18T14:08:24.462Z</time>
      </trkpt>
      <trkpt lat="49.77215" lon="3.41918">
        <ele>65.767</ele>
        <time>2015-05-18T14:08:30.686Z</time>
      </trkpt>
      <trkpt lat="49.77223" lon="3.41904">
        <ele>65.675</ele>
        <time>2015-05-18T14:08:33.882Z</time>
      </trkpt>
      <trkpt lat="49.77232" lon="3.41891">
        <ele>65.45</ele>
        <time>2015-05-18T14:08:36.910Z</time>
      </trkpt>
      <trkpt lat="49.77242" lon="3.41878">
        <ele>65.2</ele>
        <time>2015-05-18T14:08:40.082Z</time>
      </trkpt>
      <trkpt lat="49.77252" lon="3.41865">
        <ele>65.045</ele>
        <time>2015-05-18T14:08:43.223Z</time>
      </trkpt>
      <trkpt lat="49.77262" lon="3.41853">
        <ele>64.985</ele>
        <time>2015-05-18T14:08:46.189Z</time>
      </trkpt>
      <trkpt lat="49.77272" lon="3.4184">
        <ele>64.955</ele>
        <time>2015-05-18T14:08:49.151Z</time>
      </trkpt>
      <trkpt lat="49.77282" lon="3.41827">
        <ele>64.868</ele>
        <time>2015-05-18T14:08:52.284Z</time>
      </trkpt>
      <trkpt lat="49.77299" lon="3.41828">
        <ele>64.697</ele>
        <time>2015-05-18T14:08:56.392Z</time>
      </trkpt>
      <trkpt lat="49.7731" lon="3.41836">
        <ele>64.445</ele>
        <time>2015-05-18T14:08:59.406Z</time>
      </trkpt>
      <trkpt lat="49.77322" lon="3.41844">
        <ele>64.157</ele>
        <time>2015-05-18T14:09:02.390Z</time>
      </trkpt>
      <trkpt lat="49.77334" lon="3.4185">
        <ele>63.964</ele>
        <time>2015-05-18T14:09:05.440Z</time>
      </trkpt>
      <trkpt lat="49.77356" lon="3.41865">
        <ele>64.019</ele>
        <time>2015-05-18T14:09:11.289Z</time>
      </trkpt>
      <trkpt lat="49.77365" lon="3.41874">
        <ele>64.141</ele>
        <time>2015-05-18T14:09:14.012Z</time>
      </trkpt>
      <trkpt lat="49.77375" lon="3.41883">
        <ele>64.281</ele>
        <time>2015-05-18T14:09:16.740Z</time>
      </trkpt>
      <trkpt lat="49.77382" lon="3.41896">
        <ele>64.403</ele>
        <time>2015-05-18T14:09:19.548Z</time>
      </trkpt>
      <trkpt lat="49.77394" lon="3.4192">
        <ele>64.501</ele>
        <time>2015-05-18T14:09:24.378Z</time>
      </trkpt>
      <trkpt lat="49.774" lon="3.41935">
        <ele>64.622</ele>
        <time>2015-05-18T14:09:27.251Z</time>
      </trkpt>
      <trkpt lat="49.77408" lon="3.41943">
        <ele>64.876</ele>
        <time>2015-05-18T14:09:29.925Z</time>
      </trkpt>
      <trkpt lat="49.77417" lon="3.41948">
        <ele>65.379</ele>
        <time>2015-05-18T14:09:32.767Z</time>
      </trkpt>
      <trkpt lat="49.77427" lon="3.41952">
        <ele>66.042</ele>
        <time>2015-05-18T14:09:36.109Z</time>
      </trkpt>
      <trkpt lat="49.77437" lon="3.41959">
        <ele>66.568</ele>
        <time>2015-05-18T14:09:39.396Z</time>
      </trkpt>
      <trkpt lat="49.77445" lon="3.41967">
        <ele>66.805</ele>
        <time>2015-05-18T14:09:42.285Z</time>
      </trkpt>
      <trkpt lat="49.77457" lon="3.41977">
        <ele>66.922</ele>
        <time>2015-05-18T14:09:45.671Z</time>
      </trkpt>
      <trkpt lat="49.77465" lon="3.41984">
        <ele>67.159</ele>
        <time>2015-05-18T14:09:47.754Z</time>
      </trkpt>
      <trkpt lat="49.7748" lon="3.41995">
        <ele>67.547</ele>
        <time>2015-05-18T14:09:51.002Z</time>
      </trkpt>
      <trkpt lat="49.77494" lon="3.42003">
        <ele>67.92</ele>
        <time>2015-05-18T14:09:53.690Z</time>
      </trkpt>
      <trkpt lat="49.7751" lon="3.42007">
        <ele>67.968</ele>
        <time>2015-05-18T14:09:56.613Z</time>
      </trkpt>
      <trkpt lat="49.77521" lon="3.42021">
        <ele>67.462</ele>
        <time>2015-05-18T14:09:59.256Z</time>
      </trkpt>
      <trkpt lat="49.77528" lon="3.42032">
        <ele>66.679</ele>
        <time>2015-05-18T14:10:01.122Z</time>
      </trkpt>
      <trkpt lat="49.77539" lon="3.42047">
        <ele>66.069</ele>
        <time>2015-05-18T14:10:04.113Z</time>
      </trkpt>
      <trkpt lat="49.77546" lon="3.42058">
        <ele>65.806</ele>
        <time>2015-05-18T14:10:06.361Z</time>
      </trkpt>
      <trkpt lat="49.77555" lon="3.42071">
        <ele>65.902</ele>
        <time>2015-05-18T14:10:09.219Z</time>
      </trkpt>
      <trkpt lat="49.77562" lon="3.4208">
        <ele>66.283</ele>
        <time>2015-05-18T14:10:11.770Z</time>
      </trkpt>
      <trkpt lat="49.77573" lon="3.42101">
        <ele>66.741</ele>
        <time>2015-05-18T14:10:16.955Z</time>
      </trkpt>
      <trkpt lat="49.77575" lon="3.42115">
        <ele>67.341</ele>
        <time>2015-05-18T14:10:20.086Z</time>
      </trkpt>
      <trkpt lat="49.77582" lon="3.42126">
        <ele>68.263</ele>
        <time>2015-05-18T14:10:23.202Z</time>
      </trkpt>
      <trkpt lat="49.77591" lon="3.42133">
        <ele>69.328</ele>
        <time>2015-05-18T14:10:27.181Z</time>
      </trkpt>
      <trkpt lat="49.77598" lon="3.42145">
        <ele>70.358</ele>
        <time>2015-05-18T14:10:31.053Z</time>
      </trkpt>
      <trkpt lat="49.77604" lon="3.42156">
        <ele>71.354</ele>
        <time>2015-05-18T14:10:34.754Z</time>
      </trkpt>
      <trkpt lat="49.77611" lon="3.42169">
        <ele>72.145</ele>
        <time>2015-05-18T14:10:39.358Z</time>
      </trkpt>
      <trkpt lat="49.77616" lon="3.42181">
        <ele>72.679</ele>
        <time>2015-05-18T14:10:43.233Z</time>
      </trkpt>
      <trkpt lat="49.77621" lon="3.42194">
        <ele>73.154</ele>
        <time>2015-05-18T14:10:47.460Z</time>
      </trkpt>
      <trkpt lat="49.77621" lon="3.42211">
        <ele>73.639</ele>
        <time>2015-05-18T14:10:51.870Z</time>
      </trkpt>
      <trkpt lat="49.77612" lon="3.42221">
        <ele>74.323</ele>
        <time>2015-05-18T14:10:56.658Z</time>
      </trkpt>
      <trkpt lat="49.77604" lon="3.42228">
        <ele>75.364</ele>
        <time>2015-05-18T14:11:00.906Z</time>
      </trkpt>
      <trkpt lat="49.77595" lon="3.42235">
        <ele>77.076</ele>
        <time>2015-05-18T14:11:05.307Z</time>
      </trkpt>
      <trkpt lat="49.77595" lon="3.42235">
        <ele>77.505</ele>
        <time>2015-05-18T14:11:08.068Z</time>
      </trkpt>
      <trkpt lat="49.77595" lon="3.42235">
        <ele>77.573</ele>
        <time>2015-05-18T14:11:08.168Z</time>
      </trkpt>
      <trkpt lat="49.77574" lon="3.42253">
        <ele>77.449</ele>
        <time>2015-05-18T14:11:25.698Z</time>
      </trkpt>
      <trkpt lat="49.77565" lon="3.42261">
        <ele>77.627</ele>
        <time>2015-05-18T14:11:30.091Z</time>
      </trkpt>
      <trkpt lat="49.7756" lon="3.42278">
        <ele>78.331</ele>
        <time>2015-05-18T14:11:35.101Z</time>
      </trkpt>
      <trkpt lat="49.77565" lon="3.42293">
        <ele>79.278</ele>
        <time>2015-05-18T14:11:38.918Z</time>
      </trkpt>
      <trkpt lat="49.77574" lon="3.42305">
        <ele>80.009</ele>
        <time>2015-05-18T14:11:42.861Z</time>
      </trkpt>
      <trkpt lat="49.7758" lon="3.42317">
        <ele>80.445</ele>
        <time>2015-05-18T14:11:46.184Z</time>
      </trkpt>
      <trkpt lat="49.77588" lon="3.42328">
        <ele>80.765</ele>
        <time>2015-05-18T14:11:49.773Z</time>
      </trkpt>
      <trkpt lat="49.77594" lon="3.42341">
        <ele>81.102</ele>
        <time>2015-05-18T14:11:53.558Z</time>
      </trkpt>
      <trkpt lat="49.776" lon="3.42353">
        <ele>81.391</ele>
        <time>2015-05-18T14:11:57.414Z</time>
      </trkpt>
      <trkpt lat="49.77606" lon="3.42365">
        <ele>81.562</ele>
        <time>2015-05-18T14:12:01.123Z</time>
      </trkpt>
      <trkpt lat="49.77613" lon="3.42374">
        <ele>81.691</ele>
        <time>2015-05-18T14:12:04.774Z</time>
      </trkpt>
      <trkpt lat="49.77621" lon="3.42383">
        <ele>81.838</ele>
        <time>2015-05-18T14:12:08.646Z</time>
      </trkpt>
      <trkpt lat="49.77628" lon="3.42394">
        <ele>82.021</ele>
        <time>2015-05-18T14:12:12.501Z</time>
      </trkpt>
      <trkpt lat="49.77634" lon="3.42404">
        <ele>82.298</ele>
        <time>2015-05-18T14:12:16.225Z</time>
      </trkpt>
      <trkpt lat="49.7764" lon="3.42417">
        <ele>82.651</ele>
        <time>2015-05-18T14:12:20.013Z</time>
      </trkpt>
      <trkpt lat="49.77648" lon="3.4243">
        <ele>82.923</ele>
        <time>2015-05-18T14:12:24.161Z</time>
      </trkpt>
      <trkpt lat="49.77655" lon="3.42445">
        <ele>82.996</ele>
        <time>2015-05-18T14:12:28.020Z</time>
      </trkpt>
      <trkpt lat="49.7766" lon="3.4246">
        <ele>82.916</ele>
        <time>2015-05-18T14:12:31.782Z</time>
      </trkpt>
      <trkpt lat="49.77666" lon="3.42475">
        <ele>82.844</ele>
        <time>2015-05-18T14:12:35.639Z</time>
      </trkpt>
      <trkpt lat="49.77671" lon="3.42488">
        <ele>82.882</ele>
        <time>2015-05-18T14:12:39.155Z</time>
      </trkpt>
      <trkpt lat="49.77675" lon="3.42504">
        <ele>82.942</ele>
        <time>2015-05-18T14:12:42.971Z</time>
      </trkpt>
      <trkpt lat="49.77678" lon="3.42519">
        <ele>82.838</ele>
        <time>2015-05-18T14:12:46.745Z</time>
      </trkpt>
      <trkpt lat="49.77681" lon="3.42535">
        <ele>82.549</ele>
        <time>2015-05-18T14:12:50.453Z</time>
      </trkpt>
      <trkpt lat="49.77683" lon="3.42551">
        <ele>82.377</ele>
        <time>2015-05-18T14:12:54.278Z</time>
      </trkpt>
      <trkpt lat="49.77684" lon="3.42567">
        <ele>82.809</ele>
        <time>2015-05-18T14:12:58.028Z</time>
      </trkpt>
      <trkpt lat="49.77685" lon="3.42583">
        <ele>83.018</ele>
        <time>2015-05-18T14:13:01.724Z</time>
      </trkpt>
      <trkpt lat="49.77688" lon="3.42598">
        <ele>83.14</ele>
        <time>2015-05-18T14:13:05.448Z</time>
      </trkpt>
      <trkpt lat="49.7769" lon="3.42612">
        <ele>83.238</ele>
        <time>2015-05-18T14:13:08.972Z</time>
      </trkpt>
      <trkpt lat="49.77694" lon="3.42626">
        <ele>83.087</ele>
        <time>2015-05-18T14:13:13.043Z</time>
      </trkpt>
      <trkpt lat="49.77703" lon="3.42636">
        <ele>82.778</ele>
        <time>2015-05-18T14:13:17.999Z</time>
      </trkpt>
      <trkpt lat="49.77716" lon="3.42636">
        <ele>82.577</ele>
        <time>2015-05-18T14:13:22.872Z</time>
      </trkpt>
      <trkpt lat="49.7773" lon="3.42635">
        <ele>82.697</ele>
        <time>2015-05-18T14:13:26.803Z</time>
      </trkpt>
      <trkpt lat="49.77743" lon="3.42637">
        <ele>83.08</ele>
        <time>2015-05-18T14:13:29.994Z</time>
      </trkpt>
      <trkpt lat="49.77753" lon="3.42638">
        <ele>83.518</ele>
        <time>2015-05-18T14:13:32.222Z</time>
      </trkpt>
      <trkpt lat="49.77768" lon="3.42632">
        <ele>83.457</ele>
        <time>2015-05-18T14:13:35.363Z</time>
      </trkpt>
      <trkpt lat="49.77778" lon="3.42629">
        <ele>82.337</ele>
        <time>2015-05-18T14:13:37.335Z</time>
      </trkpt>
      <trkpt lat="49.77802" lon="3.42626">
        <ele>80.737</ele>
        <time>2015-05-18T14:13:41.557Z</time>
      </trkpt>
      <trkpt lat="49.77813" lon="3.42609">
        <ele>79.364</ele>
        <time>2015-05-18T14:13:44.106Z</time>
      </trkpt>
      <trkpt lat="49.77828" lon="3.42617">
        <ele>78.422</ele>
        <time>2015-05-18T14:13:46.786Z</time>
      </trkpt>
      <trkpt lat="49.77839" lon="3.42622">
        <ele>77.751</ele>
        <time>2015-05-18T14:13:48.862Z</time>
      </trkpt>
      <trkpt lat="49.77854" lon="3.42626">
        <ele>77.72</ele>
        <time>2015-05-18T14:13:51.515Z</time>
      </trkpt>
      <trkpt lat="49.77869" lon="3.42623">
        <ele>77.267</ele>
        <time>2015-05-18T14:13:54.197Z</time>
      </trkpt>
      <trkpt lat="49.7788" lon="3.4262">
        <ele>76.092</ele>
        <time>2015-05-18T14:13:55.949Z</time>
      </trkpt>
      <trkpt lat="49.77896" lon="3.42611">
        <ele>74.35</ele>
        <time>2015-05-18T14:13:58.906Z</time>
      </trkpt>
      <trkpt lat="49.77908" lon="3.42603">
        <ele>72.407</ele>
        <time>2015-05-18T14:14:00.952Z</time>
      </trkpt>
      <trkpt lat="49.77924" lon="3.42592">
        <ele>70.74</ele>
        <time>2015-05-18T14:14:03.881Z</time>
      </trkpt>
      <trkpt lat="49.77934" lon="3.42584">
        <ele>69.721</ele>
        <time>2015-05-18T14:14:05.945Z</time>
      </trkpt>
      <trkpt lat="49.77958" lon="3.42564">
        <ele>68.988</ele>
        <time>2015-05-18T14:14:10.991Z</time>
      </trkpt>
      <trkpt lat="49.77968" lon="3.42555">
        <ele>68.066</ele>
        <time>2015-05-18T14:14:13.419Z</time>
      </trkpt>
      <trkpt lat="49.77981" lon="3.42546">
        <ele>66.938</ele>
        <time>2015-05-18T14:14:16.558Z</time>
      </trkpt>
      <trkpt lat="49.7799" lon="3.4254">
        <ele>65.881</ele>
        <time>2015-05-18T14:14:18.568Z</time>
      </trkpt>
      <trkpt lat="49.78" lon="3.42532">
        <ele>65.193</ele>
        <time>2015-05-18T14:14:21.017Z</time>
      </trkpt>
      <trkpt lat="49.78009" lon="3.42526">
        <ele>64.882</ele>
        <time>2015-05-18T14:14:23.145Z</time>
      </trkpt>
      <trkpt lat="49.78022" lon="3.42517">
        <ele>64.702</ele>
        <time>2015-05-18T14:14:26.283Z</time>
      </trkpt>
      <trkpt lat="49.78033" lon="3.42509">
        <ele>64.357</ele>
        <time>2015-05-18T14:14:28.780Z</time>
      </trkpt>
      <trkpt lat="49.78047" lon="3.42499">
        <ele>63.755</ele>
        <time>2015-05-18T14:14:32.039Z</time>
      </trkpt>
      <trkpt lat="49.78059" lon="3.42489">
        <ele>63.193</ele>
        <time>2015-05-18T14:14:34.897Z</time>
      </trkpt>
      <trkpt lat="49.7807" lon="3.4248">
        <ele>62.992</ele>
        <time>2015-05-18T14:14:37.163Z</time>
      </trkpt>
      <trkpt lat="49.78083" lon="3.42467">
        <ele>63.027</ele>
        <time>2015-05-18T14:14:40.103Z</time>
      </trkpt>
      <trkpt lat="49.78097" lon="3.42454">
        <ele>63.038</ele>
        <time>2015-05-18T14:14:43.205Z</time>
      </trkpt>
      <trkpt lat="49.78108" lon="3.42444">
        <ele>62.958</ele>
        <time>2015-05-18T14:14:45.794Z</time>
      </trkpt>
      <trkpt lat="49.78121" lon="3.42432">
        <ele>62.861</ele>
        <time>2015-05-18T14:14:48.675Z</time>
      </trkpt>
      <trkpt lat="49.7813" lon="3.42424">
        <ele>62.741</ele>
        <time>2015-05-18T14:14:50.545Z</time>
      </trkpt>
      <trkpt lat="49.78139" lon="3.42416">
        <ele>62.591</ele>
        <time>2015-05-18T14:14:52.591Z</time>
      </trkpt>
      <trkpt lat="49.78149" lon="3.4241">
        <ele>62.469</ele>
        <time>2015-05-18T14:14:54.573Z</time>
      </trkpt>
      <trkpt lat="49.78164" lon="3.42403">
        <ele>62.434</ele>
        <time>2015-05-18T14:14:57.503Z</time>
      </trkpt>
      <trkpt lat="49.78176" lon="3.42397">
        <ele>62.486</ele>
        <time>2015-05-18T14:15:00.022Z</time>
      </trkpt>
      <trkpt lat="49.78188" lon="3.42391">
        <ele>62.602</ele>
        <time>2015-05-18T14:15:02.769Z</time>
      </trkpt>
      <trkpt lat="49.78201" lon="3.42383">
        <ele>62.776</ele>
        <time>2015-05-18T14:15:05.651Z</time>
      </trkpt>
      <trkpt lat="49.7821" lon="3.42378">
        <ele>62.94</ele>
        <time>2015-05-18T14:15:07.580Z</time>
      </trkpt>
      <trkpt lat="49.78221" lon="3.4237">
        <ele>63.006</ele>
        <time>2015-05-18T14:15:10.136Z</time>
      </trkpt>
      <trkpt lat="49.7823" lon="3.42363">
        <ele>62.934</ele>
        <time>2015-05-18T14:15:12.161Z</time>
      </trkpt>
      <trkpt lat="49.78243" lon="3.42353">
        <ele>62.771</ele>
        <time>2015-05-18T14:15:15.110Z</time>
      </trkpt>
      <trkpt lat="49.78255" lon="3.42343">
        <ele>62.619</ele>
        <time>2015-05-18T14:15:17.927Z</time>
      </trkpt>
      <trkpt lat="49.78268" lon="3.42333">
        <ele>62.502</ele>
        <time>2015-05-18T14:15:20.780Z</time>
      </trkpt>
      <trkpt lat="49.7828" lon="3.42323">
        <ele>62.357</ele>
        <time>2015-05-18T14:15:23.641Z</time>
      </trkpt>
      <trkpt lat="49.78291" lon="3.42314">
        <ele>62.212</ele>
        <time>2015-05-18T14:15:26.298Z</time>
      </trkpt>
      <trkpt lat="49.78299" lon="3.42307">
        <ele>62.131</ele>
        <time>2015-05-18T14:15:28.345Z</time>
      </trkpt>
      <trkpt lat="49.78311" lon="3.42298">
        <ele>62.117</ele>
        <time>2015-05-18T14:15:31.211Z</time>
      </trkpt>
      <trkpt lat="49.78311" lon="3.42298">
        <ele>62.149</ele>
        <time>2015-05-18T14:15:33.332Z</time>
      </trkpt>
      <trkpt lat="49.78311" lon="3.42298">
        <ele>62.169</ele>
        <time>2015-05-18T14:15:33.432Z</time>
      </trkpt>
      <trkpt lat="49.78334" lon="3.4228">
        <ele>62.143</ele>
        <time>2015-05-18T14:15:41.048Z</time>
      </trkpt>
      <trkpt lat="49.78346" lon="3.4227">
        <ele>62.14</ele>
        <time>2015-05-18T14:15:44.009Z</time>
      </trkpt>
      <trkpt lat="49.78354" lon="3.42263">
        <ele>62.232</ele>
        <time>2015-05-18T14:15:46.044Z</time>
      </trkpt>
      <trkpt lat="49.78365" lon="3.42254">
        <ele>62.354</ele>
        <time>2015-05-18T14:15:49.062Z</time>
      </trkpt>
      <trkpt lat="49.78376" lon="3.42244">
        <ele>62.311</ele>
        <time>2015-05-18T14:15:51.853Z</time>
      </trkpt>
      <trkpt lat="49.78387" lon="3.42235">
        <ele>62.051</ele>
        <time>2015-05-18T14:15:54.592Z</time>
      </trkpt>
      <trkpt lat="49.78404" lon="3.4222">
        <ele>62.001</ele>
        <time>2015-05-18T14:15:59.532Z</time>
      </trkpt>
      <trkpt lat="49.78413" lon="3.42212">
        <ele>62.461</ele>
        <time>2015-05-18T14:16:02.173Z</time>
      </trkpt>
      <trkpt lat="49.78409" lon="3.42194">
        <ele>62.998</ele>
        <time>2015-05-18T14:16:04.932Z</time>
      </trkpt>
      <trkpt lat="49.78403" lon="3.42185">
        <ele>63.125</ele>
        <time>2015-05-18T14:16:06.943Z</time>
      </trkpt>
      <trkpt lat="49.78394" lon="3.42176">
        <ele>62.876</ele>
        <time>2015-05-18T14:16:09.214Z</time>
      </trkpt>
      <trkpt lat="49.78382" lon="3.4217">
        <ele>62.349</ele>
        <time>2015-05-18T14:16:12.139Z</time>
      </trkpt>
      <trkpt lat="49.78369" lon="3.42166">
        <ele>61.669</ele>
        <time>2015-05-18T14:16:14.894Z</time>
      </trkpt>
      <trkpt lat="49.78358" lon="3.42165">
        <ele>61.242</ele>
        <time>2015-05-18T14:16:17.137Z</time>
      </trkpt>
      <trkpt lat="49.78348" lon="3.42164">
        <ele>61.398</ele>
        <time>2015-05-18T14:16:19.101Z</time>
      </trkpt>
      <trkpt lat="49.78336" lon="3.42163">
        <ele>61.983</ele>
        <time>2015-05-18T14:16:21.603Z</time>
      </trkpt>
      <trkpt lat="49.78324" lon="3.42162">
        <ele>62.596</ele>
        <time>2015-05-18T14:16:23.802Z</time>
      </trkpt>
      <trkpt lat="49.7831" lon="3.42157">
        <ele>62.719</ele>
        <time>2015-05-18T14:16:26.446Z</time>
      </trkpt>
      <trkpt lat="49.78297" lon="3.42147">
        <ele>62.109</ele>
        <time>2015-05-18T14:16:29.310Z</time>
      </trkpt>
      <trkpt lat="49.78283" lon="3.42136">
        <ele>61.214</ele>
        <time>2015-05-18T14:16:32.285Z</time>
      </trkpt>
      <trkpt lat="49.78272" lon="3.42127">
        <ele>60.738</ele>
        <time>2015-05-18T14:16:34.722Z</time>
      </trkpt>
      <trkpt lat="49.78264" lon="3.42119">
        <ele>60.887</ele>
        <time>2015-05-18T14:16:36.540Z</time>
      </trkpt>
      <trkpt lat="49.78254" lon="3.42107">
        <ele>61.354</ele>
        <time>2015-05-18T14:16:38.888Z</time>
      </trkpt>
      <trkpt lat="49.78245" lon="3.42089">
        <ele>61.83</ele>
        <time>2015-05-18T14:16:41.719Z</time>
      </trkpt>
      <trkpt lat="49.78251" lon="3.42065">
        <ele>62.242</ele>
        <time>2015-05-18T14:16:44.817Z</time>
      </trkpt>
      <trkpt lat="49.78257" lon="3.42052">
        <ele>62.541</ele>
        <time>2015-05-18T14:16:46.678Z</time>
      </trkpt>
      <trkpt lat="49.78266" lon="3.42035">
        <ele>62.657</ele>
        <time>2015-05-18T14:16:49.157Z</time>
      </trkpt>
      <trkpt lat="49.78272" lon="3.42024">
        <ele>62.554</ele>
        <time>2015-05-18T14:16:50.836Z</time>
      </trkpt>
      <trkpt lat="49.7828" lon="3.42007">
        <ele>62.303</ele>
        <time>2015-05-18T14:16:53.327Z</time>
      </trkpt>
      <trkpt lat="49.78287" lon="3.41992">
        <ele>62.076</ele>
        <time>2015-05-18T14:16:55.583Z</time>
      </trkpt>
      <trkpt lat="49.78292" lon="3.41976">
        <ele>62.081</ele>
        <time>2015-05-18T14:16:57.748Z</time>
      </trkpt>
      <trkpt lat="49.78296" lon="3.41954">
        <ele>61.962</ele>
        <time>2015-05-18T14:17:00.484Z</time>
      </trkpt>
      <trkpt lat="49.78291" lon="3.4194">
        <ele>61.664</ele>
        <time>2015-05-18T14:17:02.553Z</time>
      </trkpt>
      <trkpt lat="49.78282" lon="3.41928">
        <ele>61.241</ele>
        <time>2015-05-18T14:17:04.953Z</time>
      </trkpt>
      <trkpt lat="49.78269" lon="3.41911">
        <ele>60.865</ele>
        <time>2015-05-18T14:17:08.245Z</time>
      </trkpt>
      <trkpt lat="49.78261" lon="3.41901">
        <ele>60.689</ele>
        <time>2015-05-18T14:17:10.052Z</time>
      </trkpt>
      <trkpt lat="49.78254" lon="3.41891">
        <ele>60.693</ele>
        <time>2015-05-18T14:17:11.770Z</time>
      </trkpt>
      <trkpt lat="49.78243" lon="3.41874">
        <ele>60.794</ele>
        <time>2015-05-18T14:17:14.539Z</time>
      </trkpt>
      <trkpt lat="49.78233" lon="3.41854">
        <ele>60.756</ele>
        <time>2015-05-18T14:17:17.441Z</time>
      </trkpt>
      <trkpt lat="49.78228" lon="3.4184">
        <ele>60.745</ele>
        <time>2015-05-18T14:17:19.409Z</time>
      </trkpt>
      <trkpt lat="49.78223" lon="3.41826">
        <ele>60.825</ele>
        <time>2015-05-18T14:17:21.306Z</time>
      </trkpt>
      <trkpt lat="49.78217" lon="3.41805">
        <ele>60.91</ele>
        <time>2015-05-18T14:17:24.054Z</time>
      </trkpt>
      <trkpt lat="49.78211" lon="3.41785">
        <ele>60.914</ele>
        <time>2015-05-18T14:17:26.631Z</time>
      </trkpt>
      <trkpt lat="49.78208" lon="3.41772">
        <ele>60.892</ele>
        <time>2015-05-18T14:17:28.334Z</time>
      </trkpt>
      <trkpt lat="49.78204" lon="3.4175">
        <ele>60.911</ele>
        <time>2015-05-18T14:17:31.142Z</time>
      </trkpt>
      <trkpt lat="49.78199" lon="3.41725">
        <ele>60.968</ele>
        <time>2015-05-18T14:17:34.383Z</time>
      </trkpt>
      <trkpt lat="49.78195" lon="3.41703">
        <ele>60.996</ele>
        <time>2015-05-18T14:17:37.201Z</time>
      </trkpt>
      <trkpt lat="49.78192" lon="3.41686">
        <ele>60.984</ele>
        <time>2015-05-18T14:17:39.158Z</time>
      </trkpt>
      <trkpt lat="49.78187" lon="3.4167">
        <ele>61.039</ele>
        <time>2015-05-18T14:17:41.355Z</time>
      </trkpt>
      <trkpt lat="49.78176" lon="3.41653">
        <ele>61.211</ele>
        <time>2015-05-18T14:17:44.478Z</time>
      </trkpt>
      <trkpt lat="49.78161" lon="3.4165">
        <ele>61.402</ele>
        <time>2015-05-18T14:17:47.958Z</time>
      </trkpt>
      <trkpt lat="49.78149" lon="3.4165">
        <ele>61.527</ele>
        <time>2015-05-18T14:17:50.622Z</time>
      </trkpt>
      <trkpt lat="49.78134" lon="3.41652">
        <ele>61.574</ele>
        <time>2015-05-18T14:17:54.001Z</time>
      </trkpt>
      <trkpt lat="49.78118" lon="3.41654">
        <ele>61.618</ele>
        <time>2015-05-18T14:17:57.445Z</time>
      </trkpt>
      <trkpt lat="49.78109" lon="3.41656">
        <ele>61.72</ele>
        <time>2015-05-18T14:17:59.343Z</time>
      </trkpt>
      <trkpt lat="49.78093" lon="3.41659">
        <ele>61.763</ele>
        <time>2015-05-18T14:18:02.322Z</time>
      </trkpt>
      <trkpt lat="49.7808" lon="3.41664">
        <ele>61.603</ele>
        <time>2015-05-18T14:18:04.867Z</time>
      </trkpt>
      <trkpt lat="49.78065" lon="3.41668">
        <ele>61.328</ele>
        <time>2015-05-18T14:18:07.681Z</time>
      </trkpt>
      <trkpt lat="49.78053" lon="3.4167">
        <ele>61.124</ele>
        <time>2015-05-18T14:18:09.996Z</time>
      </trkpt>
      <trkpt lat="49.78041" lon="3.41669">
        <ele>60.957</ele>
        <time>2015-05-18T14:18:12.222Z</time>
      </trkpt>
      <trkpt lat="49.78029" lon="3.41664">
        <ele>60.731</ele>
        <time>2015-05-18T14:18:14.596Z</time>
      </trkpt>
      <trkpt lat="49.78017" lon="3.41658">
        <ele>60.561</ele>
        <time>2015-05-18T14:18:17.391Z</time>
      </trkpt>
      <trkpt lat="49.78006" lon="3.41651">
        <ele>60.582</ele>
        <time>2015-05-18T14:18:20.250Z</time>
      </trkpt>
      <trkpt lat="49.77996" lon="3.4164">
        <ele>60.715</ele>
        <time>2015-05-18T14:18:23.304Z</time>
      </trkpt>
      <trkpt lat="49.77987" lon="3.41631">
        <ele>60.836</ele>
        <time>2015-05-18T14:18:25.515Z</time>
      </trkpt>
      <trkpt lat="49.77979" lon="3.41624">
        <ele>60.812</ele>
        <time>2015-05-18T14:18:27.436Z</time>
      </trkpt>
      <trkpt lat="49.77968" lon="3.41614">
        <ele>60.65</ele>
        <time>2015-05-18T14:18:29.965Z</time>
      </trkpt>
      <trkpt lat="49.77958" lon="3.41605">
        <ele>60.54</ele>
        <time>2015-05-18T14:18:32.510Z</time>
      </trkpt>
      <trkpt lat="49.77948" lon="3.41595">
        <ele>60.772</ele>
        <time>2015-05-18T14:18:35.089Z</time>
      </trkpt>
      <trkpt lat="49.77939" lon="3.41585">
        <ele>61.414</ele>
        <time>2015-05-18T14:18:37.506Z</time>
      </trkpt>
      <trkpt lat="49.7793" lon="3.41573">
        <ele>62.135</ele>
        <time>2015-05-18T14:18:40.086Z</time>
      </trkpt>
      <trkpt lat="49.7792" lon="3.41558">
        <ele>62.595</ele>
        <time>2015-05-18T14:18:43.473Z</time>
      </trkpt>
      <trkpt lat="49.77911" lon="3.4154">
        <ele>62.812</ele>
        <time>2015-05-18T14:18:47.473Z</time>
      </trkpt>
      <trkpt lat="49.77898" lon="3.41526">
        <ele>62.845</ele>
        <time>2015-05-18T14:18:52.053Z</time>
      </trkpt>
      <trkpt lat="49.77883" lon="3.41517">
        <ele>62.733</ele>
        <time>2015-05-18T14:18:55.999Z</time>
      </trkpt>
      <trkpt lat="49.77869" lon="3.41512">
        <ele>62.594</ele>
        <time>2015-05-18T14:18:59.535Z</time>
      </trkpt>
      <trkpt lat="49.77861" lon="3.41504">
        <ele>62.528</ele>
        <time>2015-05-18T14:19:01.602Z</time>
      </trkpt>
      <trkpt lat="49.77853" lon="3.41483">
        <ele>62.563</ele>
        <time>2015-05-18T14:19:04.825Z</time>
      </trkpt>
      <trkpt lat="49.77848" lon="3.41464">
        <ele>62.633</ele>
        <time>2015-05-18T14:19:07.637Z</time>
      </trkpt>
      <trkpt lat="49.77841" lon="3.41448">
        <ele>62.672</ele>
        <time>2015-05-18T14:19:10.363Z</time>
      </trkpt>
      <trkpt lat="49.77833" lon="3.41433">
        <ele>62.697</ele>
        <time>2015-05-18T14:19:13.314Z</time>
      </trkpt>
      <trkpt lat="49.77825" lon="3.41416">
        <ele>62.775</ele>
        <time>2015-05-18T14:19:16.583Z</time>
      </trkpt>
      <trkpt lat="49.77819" lon="3.41405">
        <ele>62.902</ele>
        <time>2015-05-18T14:19:18.776Z</time>
      </trkpt>
      <trkpt lat="49.7781" lon="3.41391">
        <ele>62.972</ele>
        <time>2015-05-18T14:19:21.880Z</time>
      </trkpt>
      <trkpt lat="49.778" lon="3.41378">
        <ele>62.907</ele>
        <time>2015-05-18T14:19:24.951Z</time>
      </trkpt>
      <trkpt lat="49.77789" lon="3.41365">
        <ele>62.77</ele>
        <time>2015-05-18T14:19:28.242Z</time>
      </trkpt>
      <trkpt lat="49.77781" lon="3.41356">
        <ele>62.71</ele>
        <time>2015-05-18T14:19:30.435Z</time>
      </trkpt>
      <trkpt lat="49.7777" lon="3.41342">
        <ele>62.811</ele>
        <time>2015-05-18T14:19:33.808Z</time>
      </trkpt>
      <trkpt lat="49.77764" lon="3.41316">
        <ele>63.06</ele>
        <time>2015-05-18T14:19:38.038Z</time>
      </trkpt>
      <trkpt lat="49.77765" lon="3.41295">
        <ele>63.374</ele>
        <time>2015-05-18T14:19:41.294Z</time>
      </trkpt>
      <trkpt lat="49.77766" lon="3.41276">
        <ele>63.475</ele>
        <time>2015-05-18T14:19:44.225Z</time>
      </trkpt>
      <trkpt lat="49.77767" lon="3.41257">
        <ele>63.165</ele>
        <time>2015-05-18T14:19:47.153Z</time>
      </trkpt>
      <trkpt lat="49.77767" lon="3.41242">
        <ele>62.72</ele>
        <time>2015-05-18T14:19:49.474Z</time>
      </trkpt>
      <trkpt lat="49.77768" lon="3.4122">
        <ele>62.459</ele>
        <time>2015-05-18T14:19:52.891Z</time>
      </trkpt>
      <trkpt lat="49.77769" lon="3.41199">
        <ele>62.449</ele>
        <time>2015-05-18T14:19:56.146Z</time>
      </trkpt>
      <trkpt lat="49.7777" lon="3.41178">
        <ele>62.645</ele>
        <time>2015-05-18T14:19:59.336Z</time>
      </trkpt>
      <trkpt lat="49.7777" lon="3.4116">
        <ele>62.985</ele>
        <time>2015-05-18T14:20:01.973Z</time>
      </trkpt>
      <trkpt lat="49.77753" lon="3.41145">
        <ele>63.394</ele>
        <time>2015-05-18T14:20:06.251Z</time>
      </trkpt>
      <trkpt lat="49.77742" lon="3.41145">
        <ele>63.735</ele>
        <time>2015-05-18T14:20:08.932Z</time>
      </trkpt>
      <trkpt lat="49.7774" lon="3.41126">
        <ele>63.952</ele>
        <time>2015-05-18T14:20:12.315Z</time>
      </trkpt>
      <trkpt lat="49.77748" lon="3.4111">
        <ele>64.114</ele>
        <time>2015-05-18T14:20:15.810Z</time>
      </trkpt>
      <trkpt lat="49.77755" lon="3.41094">
        <ele>64.22</ele>
        <time>2015-05-18T14:20:19.701Z</time>
      </trkpt>
      <trkpt lat="49.77763" lon="3.41074">
        <ele>64.228</ele>
        <time>2015-05-18T14:20:23.388Z</time>
      </trkpt>
      <trkpt lat="49.77767" lon="3.41061">
        <ele>64.165</ele>
        <time>2015-05-18T14:20:25.425Z</time>
      </trkpt>
      <trkpt lat="49.77775" lon="3.41043">
        <ele>64.094</ele>
        <time>2015-05-18T14:20:28.163Z</time>
      </trkpt>
      <trkpt lat="49.77775" lon="3.41043">
        <ele>64.056</ele>
        <time>2015-05-18T14:20:29.077Z</time>
      </trkpt>
      <trkpt lat="49.77775" lon="3.41043">
        <ele>64.042</ele>
        <time>2015-05-18T14:20:29.177Z</time>
      </trkpt>
      <trkpt lat="49.77784" lon="3.41016">
        <ele>64.032</ele>
        <time>2015-05-18T14:20:34.552Z</time>
      </trkpt>
      <trkpt lat="49.77792" lon="3.40998">
        <ele>64.053</ele>
        <time>2015-05-18T14:20:37.588Z</time>
      </trkpt>
      <trkpt lat="49.77796" lon="3.40979">
        <ele>64.127</ele>
        <time>2015-05-18T14:20:40.403Z</time>
      </trkpt>
      <trkpt lat="49.77802" lon="3.40961">
        <ele>64.192</ele>
        <time>2015-05-18T14:20:43.304Z</time>
      </trkpt>
      <trkpt lat="49.77804" lon="3.40947">
        <ele>64.192</ele>
        <time>2015-05-18T14:20:45.402Z</time>
      </trkpt>
      <trkpt lat="49.77807" lon="3.40932">
        <ele>64.172</ele>
        <time>2015-05-18T14:20:47.540Z</time>
      </trkpt>
      <trkpt lat="49.77813" lon="3.40911">
        <ele>64.217</ele>
        <time>2015-05-18T14:20:50.479Z</time>
      </trkpt>
      <trkpt lat="49.77819" lon="3.40893">
        <ele>64.33</ele>
        <time>2015-05-18T14:20:53.360Z</time>
      </trkpt>
      <trkpt lat="49.77823" lon="3.40878">
        <ele>64.439</ele>
        <time>2015-05-18T14:20:55.396Z</time>
      </trkpt>
      <trkpt lat="49.77829" lon="3.40859">
        <ele>64.507</ele>
        <time>2015-05-18T14:20:58.223Z</time>
      </trkpt>
      <trkpt lat="49.77833" lon="3.40835">
        <ele>64.57</ele>
        <time>2015-05-18T14:21:01.548Z</time>
      </trkpt>
      <trkpt lat="49.77838" lon="3.40822">
        <ele>64.624</ele>
        <time>2015-05-18T14:21:03.534Z</time>
      </trkpt>
      <trkpt lat="49.7784" lon="3.40806">
        <ele>64.587</ele>
        <time>2015-05-18T14:21:05.753Z</time>
      </trkpt>
      <trkpt lat="49.77848" lon="3.40791">
        <ele>64.402</ele>
        <time>2015-05-18T14:21:08.526Z</time>
      </trkpt>
      <trkpt lat="49.77854" lon="3.40772">
        <ele>64.158</ele>
        <time>2015-05-18T14:21:11.452Z</time>
      </trkpt>
      <trkpt lat="49.77858" lon="3.40751">
        <ele>64.034</ele>
        <time>2015-05-18T14:21:14.553Z</time>
      </trkpt>
      <trkpt lat="49.77862" lon="3.40733">
        <ele>64.107</ele>
        <time>2015-05-18T14:21:17.345Z</time>
      </trkpt>
      <trkpt lat="49.77865" lon="3.40719">
        <ele>64.264</ele>
        <time>2015-05-18T14:21:19.426Z</time>
      </trkpt>
      <trkpt lat="49.77871" lon="3.407">
        <ele>64.374</ele>
        <time>2015-05-18T14:21:22.333Z</time>
      </trkpt>
      <trkpt lat="49.77875" lon="3.40683">
        <ele>64.399</ele>
        <time>2015-05-18T14:21:25.004Z</time>
      </trkpt>
      <trkpt lat="49.77878" lon="3.4067">
        <ele>64.337</ele>
        <time>2015-05-18T14:21:27.079Z</time>
      </trkpt>
      <trkpt lat="49.77885" lon="3.40653">
        <ele>64.222</ele>
        <time>2015-05-18T14:21:30.079Z</time>
      </trkpt>
      <trkpt lat="49.77888" lon="3.40638">
        <ele>64.153</ele>
        <time>2015-05-18T14:21:32.715Z</time>
      </trkpt>
      <trkpt lat="49.77892" lon="3.40621">
        <ele>64.314</ele>
        <time>2015-05-18T14:21:35.762Z</time>
      </trkpt>
      <trkpt lat="49.77895" lon="3.40604">
        <ele>64.781</ele>
        <time>2015-05-18T14:21:38.745Z</time>
      </trkpt>
      <trkpt lat="49.77899" lon="3.40585">
        <ele>65.385</ele>
        <time>2015-05-18T14:21:42.071Z</time>
      </trkpt>
      <trkpt lat="49.77903" lon="3.40565">
        <ele>65.887</ele>
        <time>2015-05-18T14:21:45.377Z</time>
      </trkpt>
      <trkpt lat="49.77908" lon="3.40547">
        <ele>66.158</ele>
        <time>2015-05-18T14:21:48.516Z</time>
      </trkpt>
      <trkpt lat="49.77914" lon="3.40528">
        <ele>66.211</ele>
        <time>2015-05-18T14:21:51.615Z</time>
      </trkpt>
      <trkpt lat="49.77919" lon="3.40509">
        <ele>66.176</ele>
        <time>2015-05-18T14:21:54.934Z</time>
      </trkpt>
      <trkpt lat="49.77924" lon="3.40491">
        <ele>66.166</ele>
        <time>2015-05-18T14:21:58.273Z</time>
      </trkpt>
      <trkpt lat="49.77929" lon="3.40475">
        <ele>66.217</ele>
        <time>2015-05-18T14:22:01.524Z</time>
      </trkpt>
      <trkpt lat="49.77933" lon="3.4046">
        <ele>66.205</ele>
        <time>2015-05-18T14:22:04.643Z</time>
      </trkpt>
      <trkpt lat="49.77941" lon="3.40444">
        <ele>65.967</ele>
        <time>2015-05-18T14:22:07.825Z</time>
      </trkpt>
      <trkpt lat="49.77951" lon="3.40426">
        <ele>65.481</ele>
        <time>2015-05-18T14:22:10.782Z</time>
      </trkpt>
      <trkpt lat="49.77959" lon="3.40411">
        <ele>64.92</ele>
        <time>2015-05-18T14:22:12.646Z</time>
      </trkpt>
      <trkpt lat="49.77969" lon="3.40385">
        <ele>64.496</ele>
        <time>2015-05-18T14:22:15.486Z</time>
      </trkpt>
      <trkpt lat="49.77978" lon="3.40354">
        <ele>64.214</ele>
        <time>2015-05-18T14:22:18.494Z</time>
      </trkpt>
      <trkpt lat="49.77983" lon="3.40332">
        <ele>63.982</ele>
        <time>2015-05-18T14:22:20.651Z</time>
      </trkpt>
      <trkpt lat="49.7799" lon="3.40305">
        <ele>63.859</ele>
        <time>2015-05-18T14:22:23.574Z</time>
      </trkpt>
      <trkpt lat="49.77994" lon="3.4029">
        <ele>63.888</ele>
        <time>2015-05-18T14:22:25.374Z</time>
      </trkpt>
      <trkpt lat="49.78002" lon="3.40264">
        <ele>63.952</ele>
        <time>2015-05-18T14:22:28.542Z</time>
      </trkpt>
      <trkpt lat="49.78007" lon="3.40247">
        <ele>63.929</ele>
        <time>2015-05-18T14:22:30.736Z</time>
      </trkpt>
      <trkpt lat="49.7801" lon="3.40231">
        <ele>63.802</ele>
        <time>2015-05-18T14:22:32.744Z</time>
      </trkpt>
      <trkpt lat="49.78016" lon="3.40214">
        <ele>63.603</ele>
        <time>2015-05-18T14:22:35.278Z</time>
      </trkpt>
      <trkpt lat="49.78019" lon="3.40199">
        <ele>63.324</ele>
        <time>2015-05-18T14:22:37.255Z</time>
      </trkpt>
      <trkpt lat="49.78027" lon="3.40169">
        <ele>62.79</ele>
        <time>2015-05-18T14:22:41.416Z</time>
      </trkpt>
      <trkpt lat="49.7803" lon="3.40154">
        <ele>62.798</ele>
        <time>2015-05-18T14:22:43.441Z</time>
      </trkpt>
      <trkpt lat="49.78035" lon="3.40134">
        <ele>62.94</ele>
        <time>2015-05-18T14:22:46.297Z</time>
      </trkpt>
      <trkpt lat="49.78039" lon="3.4012">
        <ele>63.082</ele>
        <time>2015-05-18T14:22:48.251Z</time>
      </trkpt>
      <trkpt lat="49.78046" lon="3.401">
        <ele>63.201</ele>
        <time>2015-05-18T14:22:51.202Z</time>
      </trkpt>
      <trkpt lat="49.78052" lon="3.40079">
        <ele>63.317</ele>
        <time>2015-05-18T14:22:54.213Z</time>
      </trkpt>
      <trkpt lat="49.78058" lon="3.40062">
        <ele>63.342</ele>
        <time>2015-05-18T14:22:56.869Z</time>
      </trkpt>
      <trkpt lat="49.78063" lon="3.40043">
        <ele>63.182</ele>
        <time>2015-05-18T14:22:59.736Z</time>
      </trkpt>
      <trkpt lat="49.78069" lon="3.40025">
        <ele>62.909</ele>
        <time>2015-05-18T14:23:02.524Z</time>
      </trkpt>
      <trkpt lat="49.78075" lon="3.40006">
        <ele>62.598</ele>
        <time>2015-05-18T14:23:05.554Z</time>
      </trkpt>
      <trkpt lat="49.78078" lon="3.39993">
        <ele>62.185</ele>
        <time>2015-05-18T14:23:07.687Z</time>
      </trkpt>
      <trkpt lat="49.78084" lon="3.39976">
        <ele>61.716</ele>
        <time>2015-05-18T14:23:10.569Z</time>
      </trkpt>
      <trkpt lat="49.7809" lon="3.3996">
        <ele>61.353</ele>
        <time>2015-05-18T14:23:13.580Z</time>
      </trkpt>
      <trkpt lat="49.78097" lon="3.39945">
        <ele>61.142</ele>
        <time>2015-05-18T14:23:16.499Z</time>
      </trkpt>
      <trkpt lat="49.78104" lon="3.39929">
        <ele>61.167</ele>
        <time>2015-05-18T14:23:19.502Z</time>
      </trkpt>
      <trkpt lat="49.78111" lon="3.39913">
        <ele>61.502</ele>
        <time>2015-05-18T14:23:22.312Z</time>
      </trkpt>
      <trkpt lat="49.78124" lon="3.39903">
        <ele>61.933</ele>
        <time>2015-05-18T14:23:25.302Z</time>
      </trkpt>
      <trkpt lat="49.78137" lon="3.39898">
        <ele>62.209</ele>
        <time>2015-05-18T14:23:28.322Z</time>
      </trkpt>
      <trkpt lat="49.78147" lon="3.39898">
        <ele>62.362</ele>
        <time>2015-05-18T14:23:30.480Z</time>
      </trkpt>
      <trkpt lat="49.78169" lon="3.39904">
        <ele>62.581</ele>
        <time>2015-05-18T14:23:35.948Z</time>
      </trkpt>
      <trkpt lat="49.78174" lon="3.39919">
        <ele>62.952</ele>
        <time>2015-05-18T14:23:38.619Z</time>
      </trkpt>
      <trkpt lat="49.7818" lon="3.39936">
        <ele>63.361</ele>
        <time>2015-05-18T14:23:41.579Z</time>
      </trkpt>
      <trkpt lat="49.78185" lon="3.39952">
        <ele>63.65</ele>
        <time>2015-05-18T14:23:44.334Z</time>
      </trkpt>
      <trkpt lat="49.78191" lon="3.39969">
        <ele>63.787</ele>
        <time>2015-05-18T14:23:47.168Z</time>
      </trkpt>
      <trkpt lat="49.78196" lon="3.39981">
        <ele>63.834</ele>
        <time>2015-05-18T14:23:49.339Z</time>
      </trkpt>
      <trkpt lat="49.78204" lon="3.40005">
        <ele>63.875</ele>
        <time>2015-05-18T14:23:53.181Z</time>
      </trkpt>
      <trkpt lat="49.78211" lon="3.40022">
        <ele>64.012</ele>
        <time>2015-05-18T14:23:56.005Z</time>
      </trkpt>
      <trkpt lat="49.78216" lon="3.40035">
        <ele>64.436</ele>
        <time>2015-05-18T14:23:58.176Z</time>
      </trkpt>
      <trkpt lat="49.78222" lon="3.40049">
        <ele>65.166</ele>
        <time>2015-05-18T14:24:00.680Z</time>
      </trkpt>
      <trkpt lat="49.78229" lon="3.40066">
        <ele>65.909</ele>
        <time>2015-05-18T14:24:03.891Z</time>
      </trkpt>
      <trkpt lat="49.78236" lon="3.40083">
        <ele>66.42</ele>
        <time>2015-05-18T14:24:06.919Z</time>
      </trkpt>
      <trkpt lat="49.78243" lon="3.401">
        <ele>66.678</ele>
        <time>2015-05-18T14:24:09.847Z</time>
      </trkpt>
      <trkpt lat="49.78251" lon="3.40118">
        <ele>66.742</ele>
        <time>2015-05-18T14:24:12.874Z</time>
      </trkpt>
      <trkpt lat="49.78258" lon="3.40134">
        <ele>66.668</ele>
        <time>2015-05-18T14:24:15.627Z</time>
      </trkpt>
      <trkpt lat="49.78275" lon="3.40163">
        <ele>66.5</ele>
        <time>2015-05-18T14:24:20.904Z</time>
      </trkpt>
      <trkpt lat="49.78285" lon="3.40175">
        <ele>66.278</ele>
        <time>2015-05-18T14:24:23.682Z</time>
      </trkpt>
      <trkpt lat="49.78294" lon="3.40186">
        <ele>66.029</ele>
        <time>2015-05-18T14:24:26.539Z</time>
      </trkpt>
      <trkpt lat="49.78304" lon="3.40199">
        <ele>65.831</ele>
        <time>2015-05-18T14:24:29.759Z</time>
      </trkpt>
      <trkpt lat="49.78312" lon="3.4021">
        <ele>65.849</ele>
        <time>2015-05-18T14:24:32.734Z</time>
      </trkpt>
      <trkpt lat="49.78322" lon="3.40221">
        <ele>66.113</ele>
        <time>2015-05-18T14:24:35.870Z</time>
      </trkpt>
      <trkpt lat="49.7833" lon="3.40232">
        <ele>66.437</ele>
        <time>2015-05-18T14:24:38.854Z</time>
      </trkpt>
      <trkpt lat="49.78338" lon="3.40243">
        <ele>66.647</ele>
        <time>2015-05-18T14:24:42.428Z</time>
      </trkpt>
      <trkpt lat="49.78351" lon="3.40265">
        <ele>66.823</ele>
        <time>2015-05-18T14:24:49.029Z</time>
      </trkpt>
      <trkpt lat="49.78358" lon="3.40281">
        <ele>67.259</ele>
        <time>2015-05-18T14:24:53.078Z</time>
      </trkpt>
      <trkpt lat="49.78365" lon="3.40296">
        <ele>68.018</ele>
        <time>2015-05-18T14:24:56.235Z</time>
      </trkpt>
      <trkpt lat="49.78371" lon="3.40311">
        <ele>68.719</ele>
        <time>2015-05-18T14:24:59.170Z</time>
      </trkpt>
      <trkpt lat="49.78378" lon="3.40328">
        <ele>69.061</ele>
        <time>2015-05-18T14:25:02.246Z</time>
      </trkpt>
      <trkpt lat="49.78383" lon="3.4034">
        <ele>69.193</ele>
        <time>2015-05-18T14:25:04.359Z</time>
      </trkpt>
      <trkpt lat="49.78392" lon="3.40356">
        <ele>69.36</ele>
        <time>2015-05-18T14:25:07.292Z</time>
      </trkpt>
      <trkpt lat="49.78401" lon="3.40373">
        <ele>69.591</ele>
        <time>2015-05-18T14:25:10.551Z</time>
      </trkpt>
      <trkpt lat="49.7841" lon="3.40389">
        <ele>69.774</ele>
        <time>2015-05-18T14:25:13.491Z</time>
      </trkpt>
      <trkpt lat="49.78418" lon="3.40404">
        <ele>69.859</ele>
        <time>2015-05-18T14:25:16.440Z</time>
      </trkpt>
      <trkpt lat="49.78426" lon="3.40418">
        <ele>69.898</ele>
        <time>2015-05-18T14:25:19.210Z</time>
      </trkpt>
      <trkpt lat="49.78433" lon="3.40432">
        <ele>69.966</ele>
        <time>2015-05-18T14:25:21.979Z</time>
      </trkpt>
      <trkpt lat="49.7844" lon="3.40445">
        <ele>70.042</ele>
        <time>2015-05-18T14:25:24.766Z</time>
      </trkpt>
      <trkpt lat="49.78447" lon="3.40458">
        <ele>69.946</ele>
        <time>2015-05-18T14:25:27.504Z</time>
      </trkpt>
      <trkpt lat="49.78453" lon="3.40471">
        <ele>69.611</ele>
        <time>2015-05-18T14:25:30.360Z</time>
      </trkpt>
      <trkpt lat="49.78459" lon="3.40485">
        <ele>69.23</ele>
        <time>2015-05-18T14:25:33.193Z</time>
      </trkpt>
      <trkpt lat="49.78464" lon="3.40499">
        <ele>68.992</ele>
        <time>2015-05-18T14:25:35.984Z</time>
      </trkpt>
      <trkpt lat="49.78469" lon="3.40514">
        <ele>68.904</ele>
        <time>2015-05-18T14:25:38.797Z</time>
      </trkpt>
      <trkpt lat="49.78473" lon="3.40528">
        <ele>68.914</ele>
        <time>2015-05-18T14:25:41.453Z</time>
      </trkpt>
      <trkpt lat="49.78479" lon="3.40541">
        <ele>68.957</ele>
        <time>2015-05-18T14:25:44.561Z</time>
      </trkpt>
      <trkpt lat="49.78493" lon="3.40535">
        <ele>69.11</ele>
        <time>2015-05-18T14:25:49.131Z</time>
      </trkpt>
      <trkpt lat="49.78501" lon="3.40528">
        <ele>69.55</ele>
        <time>2015-05-18T14:25:52.712Z</time>
      </trkpt>
      <trkpt lat="49.7851" lon="3.4052">
        <ele>70.266</ele>
        <time>2015-05-18T14:25:56.800Z</time>
      </trkpt>
      <trkpt lat="49.78519" lon="3.40512">
        <ele>71.231</ele>
        <time>2015-05-18T14:26:01.436Z</time>
      </trkpt>
      <trkpt lat="49.78528" lon="3.40504">
        <ele>72.379</ele>
        <time>2015-05-18T14:26:05.714Z</time>
      </trkpt>
      <trkpt lat="49.78536" lon="3.40496">
        <ele>73.419</ele>
        <time>2015-05-18T14:26:10.114Z</time>
      </trkpt>
      <trkpt lat="49.78545" lon="3.40489">
        <ele>74.292</ele>
        <time>2015-05-18T14:26:14.586Z</time>
      </trkpt>
      <trkpt lat="49.78553" lon="3.40481">
        <ele>75.097</ele>
        <time>2015-05-18T14:26:19.121Z</time>
      </trkpt>
      <trkpt lat="49.7858" lon="3.40502">
        <ele>75.917</ele>
        <time>2015-05-18T14:26:33.280Z</time>
      </trkpt>
      <trkpt lat="49.7858" lon="3.40502">
        <ele>76.835</ele>
        <time>2015-05-18T14:26:44.066Z</time>
      </trkpt>
      <trkpt lat="49.7858" lon="3.40502">
        <ele>77.439</ele>
        <time>2015-05-18T14:26:44.166Z</time>
      </trkpt>
      <trkpt lat="49.78582" lon="3.40477">
        <ele>77.379</ele>
        <time>2015-05-18T14:26:56.099Z</time>
      </trkpt>
      <trkpt lat="49.78577" lon="3.4046">
        <ele>77.729</ele>
        <time>2015-05-18T14:27:01.003Z</time>
      </trkpt>
      <trkpt lat="49.78575" lon="3.40444">
        <ele>79.398</ele>
        <time>2015-05-18T14:27:04.913Z</time>
      </trkpt>
      <trkpt lat="49.78571" lon="3.40431">
        <ele>81.701</ele>
        <time>2015-05-18T14:27:08.425Z</time>
      </trkpt>
      <trkpt lat="49.78568" lon="3.40418">
        <ele>83.612</ele>
        <time>2015-05-18T14:27:11.996Z</time>
      </trkpt>
      <trkpt lat="49.78563" lon="3.40403">
        <ele>84.765</ele>
        <time>2015-05-18T14:27:15.947Z</time>
      </trkpt>
      <trkpt lat="49.78558" lon="3.40389">
        <ele>85.268</ele>
        <time>2015-05-18T14:27:20.081Z</time>
      </trkpt>
      <trkpt lat="49.78553" lon="3.40375">
        <ele>85.516</ele>
        <time>2015-05-18T14:27:26.076Z</time>
      </trkpt>
    </trkseg>
  </trk>
</gpx>